Observation data for Claude 12 Southwest on 07/11/2018      Previous  Date  Next       Current Mesonet Observations  Soil Data  Daily Summary Page  Observations in Plain Language
KCL1 110501Z 12008KT 24/17 A3016 RMK A01 T02350171  RH  067%=      5-min Rain = 0
KCL1 110502Z 13008KT 24/17 A3016 RMK A01 T02350171  RH  067%=      5-min Rain = 0
KCL1 110503Z 12008KT 23/17 A3016 RMK A01 T02340171  RH  068%=      5-min Rain = 0
KCL1 110504Z 12008KT 23/17 A3016 RMK A01 T02340171  RH  068%=      5-min Rain = 0
KCL1 110505Z 13008KT 23/17 A3016 RMK A01 T02340171  RH  068%=      5-min Rain = 0
KCL1 110506Z 13007KT 23/17 A3016 RMK A01 T02340171  RH  068%=      5-min Rain = 0
KCL1 110507Z 12008KT 23/17 A3016 RMK A01 T02330171  RH  068%=      5-min Rain = 0
KCL1 110508Z 13008KT 23/17 A3016 RMK A01 T02330171  RH  068%=      5-min Rain = 0
KCL1 110509Z 13008KT 23/17 A3016 RMK A01 T02320171  RH  068%=      5-min Rain = 0
KCL1 110510Z 13007KT 23/17 A3016 RMK A01 T02320171  RH  068%=      5-min Rain = 0
KCL1 110511Z 13007KT 23/17 A3016 RMK A01 T02320171  RH  068%=      5-min Rain = 0
KCL1 110512Z 13007KT 23/17 A3016 RMK A01 T02320171  RH  068%=      5-min Rain = 0
KCL1 110513Z 13007KT 23/17 A3016 RMK A01 T02320171  RH  069%=      5-min Rain = 0
KCL1 110514Z 13007KT 23/17 A3016 RMK A01 T02320171  RH  069%=      5-min Rain = 0
KCL1 110515Z 13007KT 23/17 A3016 RMK A01 T02310171  RH  069%=      5-min Rain = 0
KCL1 110516Z 13007KT 23/17 A3016 RMK A01 T02310171  RH  069%=      5-min Rain = 0
KCL1 110517Z 14007KT 23/17 A3016 RMK A01 T02310171  RH  069%=      5-min Rain = 0
KCL1 110518Z 13006KT 23/17 A3016 RMK A01 T02300170  RH  069%=      5-min Rain = 0
KCL1 110519Z 14006KT 23/17 A3016 RMK A01 T02300170  RH  069%=      5-min Rain = 0
KCL1 110520Z 14006KT 23/17 A3017 RMK A01 T02300170  RH  069%=      5-min Rain = 0
KCL1 110521Z 15005KT 23/17 A3017 RMK A01 T02300171  RH  069%=      5-min Rain = 0
KCL1 110522Z 14005KT 23/17 A3017 RMK A01 T02300171  RH  069%=      5-min Rain = 0
KCL1 110523Z 15004KT 23/17 A3017 RMK A01 T02300171  RH  069%=      5-min Rain = 0
KCL1 110524Z 15004KT 23/17 A3017 RMK A01 T02300171  RH  069%=      5-min Rain = 0
KCL1 110525Z 16003KT 23/17 A3017 RMK A01 T02290171  RH  070%=      5-min Rain = 0
KCL1 110526Z 16005KT 23/17 A3017 RMK A01 T02280170  RH  070%=      5-min Rain = 0
KCL1 110527Z 16006KT 23/17 A3017 RMK A01 T02280171  RH  070%=      5-min Rain = 0
KCL1 110528Z 15006KT 23/17 A3017 RMK A01 T02280170  RH  070%=      5-min Rain = 0
KCL1 110529Z 15006KT 23/17 A3017 RMK A01 T02280170  RH  070%=      5-min Rain = 0
KCL1 110530Z 15006KT 23/17 A3017 RMK A01 T02280169  RH  069%=      5-min Rain = 0
KCL1 110531Z 15006KT 23/17 A3017 RMK A01 T02290170  RH  069%=      5-min Rain = 0
KCL1 110532Z 15006KT 23/17 A3017 RMK A01 T02290169  RH  069%=      5-min Rain = 0
KCL1 110533Z 15006KT 23/17 A3017 RMK A01 T02290169  RH  069%=      5-min Rain = 0
KCL1 110534Z 15006KT 23/17 A3017 RMK A01 T02300169  RH  069%=      5-min Rain = 0
KCL1 110535Z 15006KT 23/17 A3017 RMK A01 T02300169  RH  068%=      5-min Rain = 0
KCL1 110536Z 15006KT 23/17 A3017 RMK A01 T02300169  RH  068%=      5-min Rain = 0
KCL1 110537Z 15006KT 23/17 A3017 RMK A01 T02300169  RH  068%=      5-min Rain = 0
KCL1 110538Z 15007KT 23/17 A3017 RMK A01 T02310170  RH  069%=      5-min Rain = 0
KCL1 110539Z 15006KT 23/17 A3017 RMK A01 T02300170  RH  069%=      5-min Rain = 0
KCL1 110540Z 15006KT 23/17 A3017 RMK A01 T02300169  RH  069%=      5-min Rain = 0
KCL1 110541Z 15005KT 23/17 A3017 RMK A01 T02300169  RH  069%=      5-min Rain = 0
KCL1 110542Z 15005KT 23/17 A3017 RMK A01 T02300170  RH  069%=      5-min Rain = 0
KCL1 110543Z 15005KT 23/17 A3017 RMK A01 T02290169  RH  069%=      5-min Rain = 0
KCL1 110544Z 15006KT 23/17 A3017 RMK A01 T02290169  RH  069%=      5-min Rain = 0
KCL1 110545Z 15006KT 23/17 A3017 RMK A01 T02300169  RH  069%=      5-min Rain = 0
KCL1 110546Z 15005KT 23/17 A3017 RMK A01 T02300169  RH  069%=      5-min Rain = 0
KCL1 110547Z 15005KT 23/17 A3017 RMK A01 T02300169  RH  069%=      5-min Rain = 0
KCL1 110548Z 15004KT 23/17 A3017 RMK A01 T02290169  RH  069%=      5-min Rain = 0
KCL1 110549Z 15004KT 23/17 A3017 RMK A01 T02290170  RH  069%=      5-min Rain = 0
KCL1 110550Z 15004KT 23/17 A3017 RMK A01 T02280169  RH  069%=      5-min Rain = 0
KCL1 110551Z 15004KT 23/17 A3017 RMK A01 T02280170  RH  070%=      5-min Rain = 0
KCL1 110552Z 16004KT 23/17 A3017 RMK A01 T02270169  RH  070%=      5-min Rain = 0
KCL1 110553Z 15005KT 23/17 A3017 RMK A01 T02270169  RH  070%=      5-min Rain = 0
KCL1 110554Z 15005KT 23/17 A3017 RMK A01 T02260169  RH  070%=      5-min Rain = 0
KCL1 110555Z 16004KT 23/17 A3017 RMK A01 T02260169  RH  070%=      5-min Rain = 0
KCL1 110556Z 15004KT 23/17 A3017 RMK A01 T02260169  RH  070%=      5-min Rain = 0
KCL1 110557Z 15004KT 23/17 A3017 RMK A01 T02260169  RH  070%=      5-min Rain = 0
KCL1 110558Z 15004KT 23/17 A3017 RMK A01 T02260169  RH  070%=      5-min Rain = 0
KCL1 110559Z 15004KT 23/17 A3017 RMK A01 T02260169  RH  070%=      5-min Rain = 0
KCL1 110600Z 15004KT 23/17 A3017 RMK A01 T02260168  RH  070%=      5-min Rain = 0
KCL1 110601Z 16004KT 23/17 A3017 RMK A01 T02260168  RH  070%=      5-min Rain = 0
KCL1 110602Z 16005KT 23/17 A3017 RMK A01 T02250168  RH  070%=      5-min Rain = 0
KCL1 110603Z 18004KT 23/17 A3017 RMK A01 T02250168  RH  070%=      5-min Rain = 0
KCL1 110604Z 18004KT 23/17 A3017 RMK A01 T02250168  RH  070%=      5-min Rain = 0
KCL1 110605Z 18004KT 23/17 A3017 RMK A01 T02260167  RH  070%=      5-min Rain = 0
KCL1 110606Z 18004KT 23/17 A3017 RMK A01 T02270167  RH  069%=      5-min Rain = 0
KCL1 110607Z 19004KT 23/17 A3017 RMK A01 T02280167  RH  068%=      5-min Rain = 0
KCL1 110608Z 18004KT 23/17 A3017 RMK A01 T02300167  RH  068%=      5-min Rain = 0
KCL1 110609Z 19004KT 23/17 A3017 RMK A01 T02320168  RH  067%=      5-min Rain = 0
KCL1 110610Z 20002KT 23/17 A3017 RMK A01 T02320167  RH  067%=      5-min Rain = 0
KCL1 110611Z 21002KT 23/17 A3017 RMK A01 T02320168  RH  067%=      5-min Rain = 0
KCL1 110612Z 19002KT 23/17 A3017 RMK A01 T02320168  RH  067%=      5-min Rain = 0
KCL1 110613Z 18002KT 23/17 A3017 RMK A01 T02320168  RH  067%=      5-min Rain = 0
KCL1 110614Z 19002KT 23/17 A3017 RMK A01 T02320167  RH  067%=      5-min Rain = 0
KCL1 110615Z 18003KT 23/17 A3017 RMK A01 T02330167  RH  067%=      5-min Rain = 0
KCL1 110616Z 17003KT 23/17 A3017 RMK A01 T02330167  RH  066%=      5-min Rain = 0
KCL1 110617Z 17004KT 23/17 A3017 RMK A01 T02330167  RH  066%=      5-min Rain = 0
KCL1 110618Z 18003KT 23/17 A3017 RMK A01 T02330167  RH  066%=      5-min Rain = 0
KCL1 110619Z 17004KT 23/17 A3017 RMK A01 T02330167  RH  066%=      5-min Rain = 0
KCL1 110620Z 17004KT 23/17 A3017 RMK A01 T02320167  RH  067%=      5-min Rain = 0
KCL1 110621Z 17004KT 23/17 A3017 RMK A01 T02320167  RH  067%=      5-min Rain = 0
KCL1 110622Z 18004KT 23/17 A3017 RMK A01 T02320167  RH  067%=      5-min Rain = 0
KCL1 110623Z 18004KT 23/17 A3017 RMK A01 T02320167  RH  067%=      5-min Rain = 0
KCL1 110624Z 18004KT 23/17 A3017 RMK A01 T02320166  RH  067%=      5-min Rain = 0
KCL1 110625Z 18005KT 23/17 A3017 RMK A01 T02320167  RH  067%=      5-min Rain = 0
KCL1 110626Z 18004KT 23/17 A3017 RMK A01 T02320166  RH  066%=      5-min Rain = 0
KCL1 110627Z 18004KT 23/17 A3017 RMK A01 T02320166  RH  066%=      5-min Rain = 0
KCL1 110628Z 18004KT 23/17 A3017 RMK A01 T02320167  RH  066%=      5-min Rain = 0
KCL1 110629Z 19004KT 23/17 A3017 RMK A01 T02320167  RH  067%=      5-min Rain = 0
KCL1 110630Z 19004KT 23/17 A3017 RMK A01 T02320166  RH  066%=      5-min Rain = 0
KCL1 110631Z 18004KT 23/17 A3017 RMK A01 T02320166  RH  066%=      5-min Rain = 0
KCL1 110632Z 18004KT 23/17 A3017 RMK A01 T02330165  RH  066%=      5-min Rain = 0
KCL1 110633Z 19004KT 23/17 A3017 RMK A01 T02340165  RH  065%=      5-min Rain = 0
KCL1 110634Z 19004KT 23/17 A3017 RMK A01 T02340165  RH  065%=      5-min Rain = 0
KCL1 110635Z 19003KT 23/17 A3017 RMK A01 T02340165  RH  065%=      5-min Rain = 0
KCL1 110636Z 20003KT 23/17 A3016 RMK A01 T02340165  RH  065%=      5-min Rain = 0
KCL1 110637Z 22003KT 24/17 A3016 RMK A01 T02350165  RH  065%=      5-min Rain = 0
KCL1 110638Z 21003KT 24/17 A3016 RMK A01 T02360165  RH  065%=      5-min Rain = 0
KCL1 110639Z 21002KT 24/17 A3016 RMK A01 T02360165  RH  065%=      5-min Rain = 0
KCL1 110640Z 20003KT 24/17 A3016 RMK A01 T02360165  RH  065%=      5-min Rain = 0
KCL1 110641Z 19003KT 24/17 A3016 RMK A01 T02360165  RH  065%=      5-min Rain = 0
KCL1 110642Z 20003KT 24/17 A3016 RMK A01 T02350165  RH  065%=      5-min Rain = 0
KCL1 110643Z 20003KT 24/17 A3016 RMK A01 T02350165  RH  065%=      5-min Rain = 0
KCL1 110644Z 19004KT 24/17 A3016 RMK A01 T02350165  RH  065%=      5-min Rain = 0
KCL1 110645Z 19004KT 24/17 A3016 RMK A01 T02350165  RH  065%=      5-min Rain = 0
KCL1 110646Z 20004KT 24/16 A3016 RMK A01 T02350164  RH  065%=      5-min Rain = 0
KCL1 110647Z 19004KT 24/17 A3016 RMK A01 T02350165  RH  064%=      5-min Rain = 0
KCL1 110648Z 20004KT 24/16 A3016 RMK A01 T02360164  RH  064%=      5-min Rain = 0
KCL1 110649Z 19004KT 24/16 A3016 RMK A01 T02360164  RH  064%=      5-min Rain = 0
KCL1 110650Z 19004KT 24/17 A3016 RMK A01 T02370165  RH  064%=      5-min Rain = 0
KCL1 110651Z 19004KT 24/17 A3016 RMK A01 T02360165  RH  064%=      5-min Rain = 0
KCL1 110652Z 18004KT 24/17 A3016 RMK A01 T02360165  RH  064%=      5-min Rain = 0
KCL1 110653Z 19005KT 24/17 A3016 RMK A01 T02360165  RH  064%=      5-min Rain = 0
KCL1 110654Z 19004KT 24/16 A3016 RMK A01 T02350164  RH  064%=      5-min Rain = 0
KCL1 110655Z 19005KT 24/16 A3016 RMK A01 T02350164  RH  065%=      5-min Rain = 0
KCL1 110656Z 19004KT 24/16 A3016 RMK A01 T02350164  RH  064%=      5-min Rain = 0
KCL1 110657Z 19004KT 24/16 A3016 RMK A01 T02350164  RH  064%=      5-min Rain = 0
KCL1 110658Z 19004KT 24/16 A3016 RMK A01 T02350164  RH  064%=      5-min Rain = 0
KCL1 110659Z 19004KT 24/16 A3016 RMK A01 T02350164  RH  064%=      5-min Rain = 0
KCL1 110700Z 18005KT 23/16 A3016 RMK A01 T02340164  RH  064%=      5-min Rain = 0
KCL1 110701Z 19005KT 23/16 A3016 RMK A01 T02340164  RH  064%=      5-min Rain = 0
KCL1 110702Z 20004KT 24/16 A3016 RMK A01 T02350164  RH  064%=      5-min Rain = 0
KCL1 110703Z 20005KT 24/16 A3016 RMK A01 T02350164  RH  064%=      5-min Rain = 0
KCL1 110704Z 19005KT 24/16 A3016 RMK A01 T02350163  RH  064%=      5-min Rain = 0
KCL1 110705Z 19007KT 24/16 A3016 RMK A01 T02360163  RH  063%=      5-min Rain = 0
KCL1 110706Z 19005KT 24/16 A3016 RMK A01 T02370162  RH  063%=      5-min Rain = 0
KCL1 110707Z 19005KT 24/16 A3016 RMK A01 T02380163  RH  063%=      5-min Rain = 0
KCL1 110708Z 19005KT 24/16 A3016 RMK A01 T02380162  RH  063%=      5-min Rain = 0
KCL1 110709Z 18006KT 24/16 A3016 RMK A01 T02380162  RH  062%=      5-min Rain = 0
KCL1 110710Z 19006KT 24/16 A3016 RMK A01 T02380162  RH  062%=      5-min Rain = 0
KCL1 110711Z 19005KT 24/16 A3016 RMK A01 T02390162  RH  062%=      5-min Rain = 0
KCL1 110712Z 19006KT 24/16 A3016 RMK A01 T02390162  RH  062%=      5-min Rain = 0
KCL1 110713Z 19006KT 24/16 A3016 RMK A01 T02390162  RH  062%=      5-min Rain = 0
KCL1 110714Z 19006KT 24/16 A3016 RMK A01 T02390162  RH  062%=      5-min Rain = 0
KCL1 110715Z 19006KT 24/16 A3016 RMK A01 T02390162  RH  062%=      5-min Rain = 0
KCL1 110716Z 19006KT 24/16 A3016 RMK A01 T02390162  RH  062%=      5-min Rain = 0
KCL1 110717Z 19007KT 24/16 A3016 RMK A01 T02390162  RH  062%=      5-min Rain = 0
KCL1 110718Z 19008KT 24/16 A3016 RMK A01 T02390161  RH  062%=      5-min Rain = 0
KCL1 110719Z 20006KT 24/16 A3016 RMK A01 T02400161  RH  061%=      5-min Rain = 0
KCL1 110720Z 19007KT 24/16 A3016 RMK A01 T02400161  RH  061%=      5-min Rain = 0
KCL1 110721Z 20005KT 24/16 A3016 RMK A01 T02410161  RH  061%=      5-min Rain = 0
KCL1 110722Z 20004KT 24/16 A3016 RMK A01 T02410162  RH  061%=      5-min Rain = 0
KCL1 110723Z 20004KT 24/16 A3016 RMK A01 T02400162  RH  062%=      5-min Rain = 0
KCL1 110724Z 20004KT 24/16 A3016 RMK A01 T02390162  RH  062%=      5-min Rain = 0
KCL1 110725Z 19004KT 24/16 A3016 RMK A01 T02390162  RH  062%=      5-min Rain = 0
KCL1 110726Z 20004KT 24/16 A3016 RMK A01 T02390162  RH  062%=      5-min Rain = 0
KCL1 110727Z 20004KT 24/16 A3016 RMK A01 T02380162  RH  062%=      5-min Rain = 0
KCL1 110728Z 19005KT 24/16 A3016 RMK A01 T02380161  RH  062%=      5-min Rain = 0
KCL1 110729Z 18005KT 24/16 A3016 RMK A01 T02380161  RH  062%=      5-min Rain = 0
KCL1 110730Z 20005KT 24/16 A3016 RMK A01 T02380161  RH  062%=      5-min Rain = 0
KCL1 110731Z 19004KT 24/16 A3016 RMK A01 T02380161  RH  062%=      5-min Rain = 0
KCL1 110732Z 18004KT 24/16 A3016 RMK A01 T02380161  RH  062%=      5-min Rain = 0
KCL1 110733Z 18004KT 24/16 A3016 RMK A01 T02380161  RH  062%=      5-min Rain = 0
KCL1 110734Z 17004KT 24/16 A3016 RMK A01 T02370162  RH  062%=      5-min Rain = 0
KCL1 110735Z 17004KT 24/16 A3016 RMK A01 T02370161  RH  063%=      5-min Rain = 0
KCL1 110736Z 18004KT 24/16 A3016 RMK A01 T02360161  RH  063%=      5-min Rain = 0
KCL1 110737Z 17005KT 24/16 A3016 RMK A01 T02360161  RH  063%=      5-min Rain = 0
KCL1 110738Z 17004KT 24/16 A3016 RMK A01 T02360161  RH  063%=      5-min Rain = 0
KCL1 110739Z 16004KT 24/16 A3016 RMK A01 T02350161  RH  063%=      5-min Rain = 0
KCL1 110740Z 16004KT 23/16 A3016 RMK A01 T02340161  RH  063%=      5-min Rain = 0
KCL1 110741Z 17005KT 23/16 A3016 RMK A01 T02340161  RH  064%=      5-min Rain = 0
KCL1 110742Z 17005KT 23/16 A3016 RMK A01 T02340161  RH  064%=      5-min Rain = 0
KCL1 110743Z 17004KT 23/16 A3016 RMK A01 T02330161  RH  064%=      5-min Rain = 0
KCL1 110744Z 18004KT 23/16 A3016 RMK A01 T02320161  RH  064%=      5-min Rain = 0
KCL1 110745Z 17004KT 23/16 A3016 RMK A01 T02320161  RH  064%=      5-min Rain = 0
KCL1 110746Z 17004KT 23/16 A3016 RMK A01 T02320161  RH  064%=      5-min Rain = 0
KCL1 110747Z 17004KT 23/16 A3016 RMK A01 T02320161  RH  064%=      5-min Rain = 0
KCL1 110748Z 17005KT 23/16 A3016 RMK A01 T02320161  RH  064%=      5-min Rain = 0
KCL1 110749Z 17003KT 23/16 A3016 RMK A01 T02320160  RH  064%=      5-min Rain = 0
KCL1 110750Z 16004KT 23/16 A3016 RMK A01 T02320160  RH  064%=      5-min Rain = 0
KCL1 110751Z 17004KT 23/16 A3016 RMK A01 T02320160  RH  064%=      5-min Rain = 0
KCL1 110752Z 17004KT 23/16 A3016 RMK A01 T02320160  RH  064%=      5-min Rain = 0
KCL1 110753Z 17005KT 23/16 A3016 RMK A01 T02320160  RH  064%=      5-min Rain = 0
KCL1 110754Z 17004KT 23/16 A3016 RMK A01 T02320160  RH  064%=      5-min Rain = 0
KCL1 110755Z 17004KT 23/16 A3016 RMK A01 T02320160  RH  064%=      5-min Rain = 0
KCL1 110756Z 17005KT 23/16 A3016 RMK A01 T02320160  RH  064%=      5-min Rain = 0
KCL1 110757Z 17006KT 23/16 A3016 RMK A01 T02320160  RH  064%=      5-min Rain = 0
KCL1 110758Z 17004KT 23/16 A3016 RMK A01 T02320160  RH  064%=      5-min Rain = 0
KCL1 110759Z 17006KT 23/16 A3016 RMK A01 T02330160  RH  064%=      5-min Rain = 0
KCL1 110800Z 17007KT 23/16 A3016 RMK A01 T02330160  RH  063%=      5-min Rain = 0
KCL1 110801Z 16006KT 23/16 A3016 RMK A01 T02330160  RH  063%=      5-min Rain = 0
KCL1 110802Z 16005KT 23/16 A3016 RMK A01 T02330159  RH  063%=      5-min Rain = 0
KCL1 110803Z 17006KT 23/16 A3016 RMK A01 T02330160  RH  063%=      5-min Rain = 0
KCL1 110804Z 16006KT 23/16 A3016 RMK A01 T02330160  RH  063%=      5-min Rain = 0
KCL1 110805Z 16005KT 23/16 A3016 RMK A01 T02330160  RH  064%=      5-min Rain = 0
KCL1 110806Z 17006KT 23/16 A3016 RMK A01 T02320160  RH  064%=      5-min Rain = 0
KCL1 110807Z 17006KT 23/16 A3016 RMK A01 T02310160  RH  064%=      5-min Rain = 0
KCL1 110808Z 16005KT 23/16 A3016 RMK A01 T02310160  RH  064%=      5-min Rain = 0
KCL1 110809Z 17005KT 23/16 A3015 RMK A01 T02310160  RH  064%=      5-min Rain = 0
KCL1 110810Z 17005KT 23/16 A3015 RMK A01 T02310160  RH  064%=      5-min Rain = 0
KCL1 110811Z 16005KT 23/16 A3015 RMK A01 T02320160  RH  064%=      5-min Rain = 0
KCL1 110812Z 16006KT 23/16 A3015 RMK A01 T02320160  RH  064%=      5-min Rain = 0
KCL1 110813Z 16006KT 23/16 A3015 RMK A01 T02310160  RH  064%=      5-min Rain = 0
KCL1 110814Z 16005KT 23/16 A3015 RMK A01 T02310160  RH  064%=      5-min Rain = 0
KCL1 110815Z 16005KT 23/16 A3015 RMK A01 T02310160  RH  064%=      5-min Rain = 0
KCL1 110816Z 16006KT 23/16 A3015 RMK A01 T02310160  RH  064%=      5-min Rain = 0
KCL1 110817Z 16005KT 23/16 A3015 RMK A01 T02310160  RH  064%=      5-min Rain = 0
KCL1 110818Z 16005KT 23/16 A3015 RMK A01 T02300160  RH  064%=      5-min Rain = 0
KCL1 110819Z 15005KT 23/16 A3015 RMK A01 T02310160  RH  064%=      5-min Rain = 0
KCL1 110820Z 16005KT 23/16 A3015 RMK A01 T02300160  RH  065%=      5-min Rain = 0
KCL1 110821Z 16005KT 23/16 A3015 RMK A01 T02290160  RH  065%=      5-min Rain = 0
KCL1 110822Z 15005KT 23/16 A3015 RMK A01 T02280160  RH  065%=      5-min Rain = 0
KCL1 110823Z 16005KT 23/16 A3015 RMK A01 T02270160  RH  066%=      5-min Rain = 0
KCL1 110824Z 16005KT 23/16 A3015 RMK A01 T02270160  RH  066%=      5-min Rain = 0
KCL1 110825Z 16005KT 23/16 A3015 RMK A01 T02270160  RH  066%=      5-min Rain = 0
KCL1 110826Z 17004KT 23/16 A3015 RMK A01 T02270160  RH  066%=      5-min Rain = 0
KCL1 110827Z 17004KT 23/16 A3015 RMK A01 T02270159  RH  066%=      5-min Rain = 0
KCL1 110828Z 17005KT 23/16 A3015 RMK A01 T02270159  RH  066%=      5-min Rain = 0
KCL1 110829Z 17004KT 23/16 A3015 RMK A01 T02270159  RH  066%=      5-min Rain = 0
KCL1 110830Z 16003KT 23/16 A3015 RMK A01 T02270159  RH  066%=      5-min Rain = 0
KCL1 110831Z 16004KT 23/16 A3015 RMK A01 T02270160  RH  066%=      5-min Rain = 0
KCL1 110832Z 16004KT 23/16 A3016 RMK A01 T02270160  RH  066%=      5-min Rain = 0
KCL1 110833Z 16004KT 23/16 A3016 RMK A01 T02260160  RH  066%=      5-min Rain = 0
KCL1 110834Z 16004KT 23/16 A3016 RMK A01 T02260160  RH  066%=      5-min Rain = 0
KCL1 110835Z 16004KT 23/16 A3016 RMK A01 T02260159  RH  066%=      5-min Rain = 0
KCL1 110836Z 16004KT 23/16 A3016 RMK A01 T02260159  RH  066%=      5-min Rain = 0
KCL1 110837Z 16003KT 23/16 A3016 RMK A01 T02260160  RH  066%=      5-min Rain = 0
KCL1 110838Z 16003KT 23/16 A3016 RMK A01 T02250160  RH  066%=      5-min Rain = 0
KCL1 110839Z 16003KT 22/16 A3016 RMK A01 T02240159  RH  067%=      5-min Rain = 0
KCL1 110840Z 16003KT 22/16 A3016 RMK A01 T02230159  RH  067%=      5-min Rain = 0
KCL1 110841Z 15003KT 22/16 A3016 RMK A01 T02220159  RH  067%=      5-min Rain = 0
KCL1 110842Z 15003KT 22/16 A3016 RMK A01 T02220159  RH  068%=      5-min Rain = 0
KCL1 110843Z 15004KT 22/16 A3016 RMK A01 T02220159  RH  068%=      5-min Rain = 0
KCL1 110844Z 16004KT 22/16 A3016 RMK A01 T02210159  RH  068%=      5-min Rain = 0
KCL1 110845Z 16004KT 22/16 A3016 RMK A01 T02210159  RH  068%=      5-min Rain = 0
KCL1 110846Z 16004KT 22/16 A3016 RMK A01 T02210159  RH  068%=      5-min Rain = 0
KCL1 110847Z 15004KT 22/16 A3016 RMK A01 T02200159  RH  068%=      5-min Rain = 0
KCL1 110848Z 15004KT 22/16 A3016 RMK A01 T02200159  RH  068%=      5-min Rain = 0
KCL1 110849Z 15005KT 22/16 A3016 RMK A01 T02190159  RH  069%=      5-min Rain = 0
KCL1 110850Z 15005KT 22/16 A3016 RMK A01 T02190159  RH  069%=      5-min Rain = 0
KCL1 110851Z 15004KT 22/16 A3015 RMK A01 T02180159  RH  069%=      5-min Rain = 0
KCL1 110852Z 14004KT 22/16 A3015 RMK A01 T02170159  RH  070%=      5-min Rain = 0
KCL1 110853Z 13004KT 22/16 A3015 RMK A01 T02160159  RH  070%=      5-min Rain = 0
KCL1 110854Z 14005KT 22/16 A3015 RMK A01 T02150159  RH  070%=      5-min Rain = 0
KCL1 110855Z 14005KT 21/16 A3015 RMK A01 T02140159  RH  071%=      5-min Rain = 0
KCL1 110856Z 15006KT 21/16 A3015 RMK A01 T02140160  RH  071%=      5-min Rain = 0
KCL1 110857Z 15006KT 21/16 A3015 RMK A01 T02140160  RH  071%=      5-min Rain = 0
KCL1 110858Z 15005KT 21/16 A3015 RMK A01 T02140160  RH  071%=      5-min Rain = 0
KCL1 110859Z 16005KT 21/16 A3015 RMK A01 T02140160  RH  071%=      5-min Rain = 0
KCL1 110900Z 15005KT 21/16 A3015 RMK A01 T02140160  RH  071%=      5-min Rain = 0
KCL1 110901Z 15005KT 22/16 A3015 RMK A01 T02150160  RH  071%=      5-min Rain = 0
KCL1 110902Z 16005KT 21/16 A3015 RMK A01 T02140160  RH  071%=      5-min Rain = 0
KCL1 110903Z 15004KT 21/16 A3015 RMK A01 T02140160  RH  071%=      5-min Rain = 0
KCL1 110904Z 15004KT 21/16 A3015 RMK A01 T02130160  RH  071%=      5-min Rain = 0
KCL1 110905Z 15004KT 21/16 A3015 RMK A01 T02130160  RH  072%=      5-min Rain = 0
KCL1 110906Z 15004KT 21/16 A3015 RMK A01 T02130160  RH  072%=      5-min Rain = 0
KCL1 110907Z 13003KT 21/16 A3015 RMK A01 T02130160  RH  072%=      5-min Rain = 0
KCL1 110908Z 14004KT 21/16 A3015 RMK A01 T02130161  RH  072%=      5-min Rain = 0
KCL1 110909Z 14004KT 21/16 A3015 RMK A01 T02130161  RH  072%=      5-min Rain = 0
KCL1 110910Z 14004KT 21/16 A3015 RMK A01 T02120160  RH  072%=      5-min Rain = 0
KCL1 110911Z 14004KT 21/16 A3015 RMK A01 T02120160  RH  072%=      5-min Rain = 0
KCL1 110912Z 15004KT 21/16 A3015 RMK A01 T02120160  RH  072%=      5-min Rain = 0
KCL1 110913Z 16004KT 21/16 A3015 RMK A01 T02130160  RH  072%=      5-min Rain = 0
KCL1 110914Z 16004KT 21/16 A3015 RMK A01 T02130160  RH  072%=      5-min Rain = 0
KCL1 110915Z 15004KT 21/16 A3015 RMK A01 T02130160  RH  072%=      5-min Rain = 0
KCL1 110916Z 15004KT 21/16 A3015 RMK A01 T02130160  RH  072%=      5-min Rain = 0
KCL1 110917Z 15004KT 21/16 A3015 RMK A01 T02130160  RH  072%=      5-min Rain = 0
KCL1 110918Z 16005KT 21/16 A3015 RMK A01 T02130160  RH  072%=      5-min Rain = 0
KCL1 110919Z 16005KT 21/16 A3015 RMK A01 T02130160  RH  072%=      5-min Rain = 0
KCL1 110920Z 16005KT 21/16 A3015 RMK A01 T02130160  RH  072%=      5-min Rain = 0
KCL1 110921Z 16005KT 21/16 A3015 RMK A01 T02140160  RH  072%=      5-min Rain = 0
KCL1 110922Z 16005KT 21/16 A3015 RMK A01 T02140160  RH  071%=      5-min Rain = 0
KCL1 110923Z 16006KT 21/16 A3015 RMK A01 T02140160  RH  071%=      5-min Rain = 0
KCL1 110924Z 16005KT 21/16 A3015 RMK A01 T02140160  RH  071%=      5-min Rain = 0
KCL1 110925Z 16005KT 22/16 A3015 RMK A01 T02150160  RH  071%=      5-min Rain = 0
KCL1 110926Z 17005KT 22/16 A3015 RMK A01 T02150160  RH  071%=      5-min Rain = 0
KCL1 110927Z 17004KT 22/16 A3015 RMK A01 T02150160  RH  071%=      5-min Rain = 0
KCL1 110928Z 17005KT 22/16 A3015 RMK A01 T02150161  RH  071%=      5-min Rain = 0
KCL1 110929Z 17005KT 22/16 A3015 RMK A01 T02150161  RH  071%=      5-min Rain = 0
KCL1 110930Z 17004KT 21/16 A3015 RMK A01 T02140160  RH  071%=      5-min Rain = 0
KCL1 110931Z 18007KT 22/16 A3015 RMK A01 T02150160  RH  071%=      5-min Rain = 0
KCL1 110932Z 19006KT 22/16 A3015 RMK A01 T02170161  RH  070%=      5-min Rain = 0
KCL1 110933Z 19005KT 22/16 A3015 RMK A01 T02190161  RH  070%=      5-min Rain = 0
KCL1 110934Z 18006KT 22/16 A3015 RMK A01 T02200161  RH  069%=      5-min Rain = 0
KCL1 110935Z 19005KT 22/16 A3015 RMK A01 T02220162  RH  069%=      5-min Rain = 0
KCL1 110936Z 20004KT 22/16 A3015 RMK A01 T02220162  RH  068%=      5-min Rain = 0
KCL1 110937Z 19004KT 22/16 A3015 RMK A01 T02220161  RH  068%=      5-min Rain = 0
KCL1 110938Z 18004KT 22/16 A3015 RMK A01 T02230162  RH  068%=      5-min Rain = 0
KCL1 110939Z 18005KT 22/16 A3015 RMK A01 T02220162  RH  068%=      5-min Rain = 0
KCL1 110940Z 17005KT 22/16 A3015 RMK A01 T02220162  RH  069%=      5-min Rain = 0
KCL1 110941Z 17006KT 22/16 A3015 RMK A01 T02220162  RH  069%=      5-min Rain = 0
KCL1 110942Z 18005KT 22/16 A3015 RMK A01 T02220162  RH  069%=      5-min Rain = 0
KCL1 110943Z 18006KT 22/16 A3015 RMK A01 T02210162  RH  069%=      5-min Rain = 0
KCL1 110944Z 17005KT 22/16 A3015 RMK A01 T02210162  RH  069%=      5-min Rain = 0
KCL1 110945Z 17005KT 22/16 A3015 RMK A01 T02200162  RH  069%=      5-min Rain = 0
KCL1 110946Z 17005KT 22/16 A3015 RMK A01 T02200162  RH  069%=      5-min Rain = 0
KCL1 110947Z 17005KT 22/16 A3015 RMK A01 T02200162  RH  070%=      5-min Rain = 0
KCL1 110948Z 17005KT 22/16 A3015 RMK A01 T02190162  RH  070%=      5-min Rain = 0
KCL1 110949Z 17005KT 22/16 A3015 RMK A01 T02190162  RH  070%=      5-min Rain = 0
KCL1 110950Z 17006KT 22/16 A3015 RMK A01 T02190162  RH  070%=      5-min Rain = 0
KCL1 110951Z 17006KT 22/16 A3015 RMK A01 T02190162  RH  070%=      5-min Rain = 0
KCL1 110952Z 18005KT 22/16 A3015 RMK A01 T02190163  RH  070%=      5-min Rain = 0
KCL1 110953Z 18005KT 22/16 A3015 RMK A01 T02190162  RH  070%=      5-min Rain = 0
KCL1 110954Z 17005KT 22/16 A3015 RMK A01 T02190163  RH  070%=      5-min Rain = 0
KCL1 110955Z 18005KT 22/16 A3014 RMK A01 T02180163  RH  071%=      5-min Rain = 0
KCL1 110956Z 18005KT 22/16 A3014 RMK A01 T02170162  RH  071%=      5-min Rain = 0
KCL1 110957Z 18005KT 22/16 A3014 RMK A01 T02170162  RH  071%=      5-min Rain = 0
KCL1 110958Z 18004KT 22/16 A3014 RMK A01 T02180162  RH  071%=      5-min Rain = 0
KCL1 110959Z 18006KT 22/16 A3014 RMK A01 T02180162  RH  070%=      5-min Rain = 0
KCL1 111000Z 17005KT 22/16 A3014 RMK A01 T02180162  RH  070%=      5-min Rain = 0
KCL1 111001Z 19007KT 22/16 A3014 RMK A01 T02180162  RH  070%=      5-min Rain = 0
KCL1 111002Z 19005KT 22/16 A3014 RMK A01 T02180161  RH  070%=      5-min Rain = 0
KCL1 111003Z 19006KT 22/16 A3014 RMK A01 T02190162  RH  070%=      5-min Rain = 0
KCL1 111004Z 19006KT 22/16 A3014 RMK A01 T02200162  RH  070%=      5-min Rain = 0
KCL1 111005Z 18005KT 22/16 A3014 RMK A01 T02200162  RH  069%=      5-min Rain = 0
KCL1 111006Z 19005KT 22/16 A3014 RMK A01 T02200162  RH  070%=      5-min Rain = 0
KCL1 111007Z 19005KT 22/16 A3014 RMK A01 T02200162  RH  070%=      5-min Rain = 0
KCL1 111008Z 19006KT 22/16 A3014 RMK A01 T02190162  RH  070%=      5-min Rain = 0
KCL1 111009Z 18005KT 22/16 A3014 RMK A01 T02190162  RH  070%=      5-min Rain = 0
KCL1 111010Z 18005KT 22/16 A3014 RMK A01 T02190162  RH  070%=      5-min Rain = 0
KCL1 111011Z 18005KT 22/16 A3014 RMK A01 T02190162  RH  070%=      5-min Rain = 0
KCL1 111012Z 17005KT 22/16 A3014 RMK A01 T02180162  RH  070%=      5-min Rain = 0
KCL1 111013Z 17005KT 22/16 A3014 RMK A01 T02170162  RH  071%=      5-min Rain = 0
KCL1 111014Z 16005KT 22/16 A3014 RMK A01 T02170162  RH  071%=      5-min Rain = 0
KCL1 111015Z 17005KT 22/16 A3014 RMK A01 T02160162  RH  071%=      5-min Rain = 0
KCL1 111016Z 17006KT 22/16 A3014 RMK A01 T02150162  RH  072%=      5-min Rain = 0
KCL1 111017Z 16005KT 22/16 A3014 RMK A01 T02150162  RH  072%=      5-min Rain = 0
KCL1 111018Z 16005KT 22/16 A3014 RMK A01 T02150162  RH  072%=      5-min Rain = 0
KCL1 111019Z 16005KT 22/16 A3014 RMK A01 T02150162  RH  072%=      5-min Rain = 0
KCL1 111020Z 16006KT 21/16 A3014 RMK A01 T02140162  RH  072%=      5-min Rain = 0
KCL1 111021Z 16006KT 21/16 A3014 RMK A01 T02140162  RH  073%=      5-min Rain = 0
KCL1 111022Z 16005KT 21/16 A3014 RMK A01 T02130162  RH  073%=      5-min Rain = 0
KCL1 111023Z 15005KT 21/16 A3014 RMK A01 T02120163  RH  073%=      5-min Rain = 0
KCL1 111024Z 16006KT 21/16 A3014 RMK A01 T02120163  RH  073%=      5-min Rain = 0
KCL1 111025Z 15005KT 21/16 A3014 RMK A01 T02120162  RH  073%=      5-min Rain = 0
KCL1 111026Z 15006KT 21/16 A3014 RMK A01 T02110162  RH  074%=      5-min Rain = 0
KCL1 111027Z 15005KT 21/16 A3014 RMK A01 T02110162  RH  074%=      5-min Rain = 0
KCL1 111028Z 15006KT 21/16 A3014 RMK A01 T02110163  RH  074%=      5-min Rain = 0
KCL1 111029Z 15005KT 21/16 A3014 RMK A01 T02100163  RH  074%=      5-min Rain = 0
KCL1 111030Z 15005KT 21/16 A3014 RMK A01 T02100163  RH  074%=      5-min Rain = 0
KCL1 111031Z 15005KT 21/16 A3014 RMK A01 T02090163  RH  075%=      5-min Rain = 0
KCL1 111032Z 15005KT 21/16 A3014 RMK A01 T02090163  RH  075%=      5-min Rain = 0
KCL1 111033Z 15005KT 21/16 A3014 RMK A01 T02080163  RH  075%=      5-min Rain = 0
KCL1 111034Z 16005KT 21/16 A3014 RMK A01 T02080163  RH  075%=      5-min Rain = 0
KCL1 111035Z 16004KT 21/16 A3014 RMK A01 T02080163  RH  075%=      5-min Rain = 0
KCL1 111036Z 16005KT 21/16 A3014 RMK A01 T02070162  RH  075%=      5-min Rain = 0
KCL1 111037Z 16004KT 21/16 A3014 RMK A01 T02070163  RH  075%=      5-min Rain = 0
KCL1 111038Z 17005KT 21/16 A3014 RMK A01 T02070162  RH  075%=      5-min Rain = 0
KCL1 111039Z 17005KT 21/16 A3014 RMK A01 T02080162  RH  075%=      5-min Rain = 0
KCL1 111040Z 17005KT 21/16 A3014 RMK A01 T02080162  RH  075%=      5-min Rain = 0
KCL1 111041Z 17005KT 21/16 A3014 RMK A01 T02080162  RH  075%=      5-min Rain = 0
KCL1 111042Z 17005KT 21/16 A3014 RMK A01 T02090162  RH  075%=      5-min Rain = 0
KCL1 111043Z 17005KT 21/16 A3014 RMK A01 T02090162  RH  074%=      5-min Rain = 0
KCL1 111044Z 17004KT 21/16 A3014 RMK A01 T02100162  RH  074%=      5-min Rain = 0
KCL1 111045Z 17004KT 21/16 A3014 RMK A01 T02100162  RH  074%=      5-min Rain = 0
KCL1 111046Z 18003KT 21/16 A3014 RMK A01 T02100162  RH  074%=      5-min Rain = 0
KCL1 111047Z 18003KT 21/16 A3014 RMK A01 T02110163  RH  074%=      5-min Rain = 0
KCL1 111048Z 18002KT 21/16 A3014 RMK A01 T02110162  RH  074%=      5-min Rain = 0
KCL1 111049Z 18002KT 21/16 A3014 RMK A01 T02110162  RH  074%=      5-min Rain = 0
KCL1 111050Z 17000KT 21/16 A3014 RMK A01 T02110162  RH  074%=      5-min Rain = 0
KCL1 111051Z 00000KT 21/16 A3014 RMK A01 T02100163  RH  074%=      5-min Rain = 0
KCL1 111052Z 00000KT 21/16 A3014 RMK A01 T02090162  RH  074%=      5-min Rain = 0
KCL1 111053Z 00000KT 21/16 A3014 RMK A01 T02090162  RH  075%=      5-min Rain = 0
KCL1 111054Z 00000KT 21/16 A3014 RMK A01 T02090162  RH  075%=      5-min Rain = 0
KCL1 111055Z 00000KT 21/16 A3014 RMK A01 T02090163  RH  075%=      5-min Rain = 0
KCL1 111056Z 18000KT 21/16 A3014 RMK A01 T02090162  RH  075%=      5-min Rain = 0
KCL1 111057Z 18001KT 21/16 A3014 RMK A01 T02090162  RH  074%=      5-min Rain = 0
KCL1 111058Z 19001KT 21/16 A3014 RMK A01 T02100162  RH  074%=      5-min Rain = 0
KCL1 111059Z 18000KT 21/16 A3014 RMK A01 T02100162  RH  074%=      5-min Rain = 0
KCL1 111100Z 17001KT 21/16 A3014 RMK A01 T02100162  RH  074%=      5-min Rain = 0
KCL1 111101Z 16001KT 21/16 A3014 RMK A01 T02100162  RH  074%=      5-min Rain = 0
KCL1 111102Z 15002KT 21/16 A3014 RMK A01 T02100163  RH  074%=      5-min Rain = 0
KCL1 111103Z 15002KT 21/16 A3014 RMK A01 T02100162  RH  074%=      5-min Rain = 0
KCL1 111104Z 15002KT 21/16 A3014 RMK A01 T02100162  RH  074%=      5-min Rain = 0
KCL1 111105Z 15003KT 21/16 A3014 RMK A01 T02100162  RH  074%=      5-min Rain = 0
KCL1 111106Z 15003KT 21/16 A3014 RMK A01 T02100163  RH  074%=      5-min Rain = 0
KCL1 111107Z 15003KT 21/16 A3014 RMK A01 T02100163  RH  074%=      5-min Rain = 0
KCL1 111108Z 15003KT 21/16 A3014 RMK A01 T02090163  RH  075%=      5-min Rain = 0
KCL1 111109Z 15003KT 21/16 A3014 RMK A01 T02090163  RH  075%=      5-min Rain = 0
KCL1 111110Z 15003KT 21/16 A3014 RMK A01 T02090163  RH  075%=      5-min Rain = 0
KCL1 111111Z 15003KT 21/16 A3014 RMK A01 T02080162  RH  075%=      5-min Rain = 0
KCL1 111112Z 16003KT 21/16 A3014 RMK A01 T02080163  RH  075%=      5-min Rain = 0
KCL1 111113Z 15003KT 21/16 A3014 RMK A01 T02080163  RH  075%=      5-min Rain = 0
KCL1 111114Z 15003KT 21/16 A3014 RMK A01 T02070163  RH  076%=      5-min Rain = 0
KCL1 111115Z 15004KT 21/16 A3014 RMK A01 T02060162  RH  076%=      5-min Rain = 0
KCL1 111116Z 15004KT 21/16 A3014 RMK A01 T02060163  RH  076%=      5-min Rain = 0
KCL1 111117Z 16004KT 21/16 A3014 RMK A01 T02060163  RH  076%=      5-min Rain = 0
KCL1 111118Z 16004KT 21/16 A3014 RMK A01 T02060162  RH  076%=      5-min Rain = 0
KCL1 111119Z 16004KT 21/16 A3014 RMK A01 T02070163  RH  076%=      5-min Rain = 0
KCL1 111120Z 16005KT 21/16 A3014 RMK A01 T02070163  RH  076%=      5-min Rain = 0
KCL1 111121Z 16005KT 21/16 A3014 RMK A01 T02070163  RH  076%=      5-min Rain = 0
KCL1 111122Z 16005KT 21/16 A3014 RMK A01 T02070163  RH  076%=      5-min Rain = 0
KCL1 111123Z 17005KT 21/16 A3014 RMK A01 T02070163  RH  076%=      5-min Rain = 0
KCL1 111124Z 17005KT 21/16 A3014 RMK A01 T02070163  RH  076%=      5-min Rain = 0
KCL1 111125Z 17005KT 21/16 A3014 RMK A01 T02070163  RH  076%=      5-min Rain = 0
KCL1 111126Z 17005KT 21/16 A3014 RMK A01 T02080163  RH  075%=      5-min Rain = 0
KCL1 111127Z 17005KT 21/16 A3014 RMK A01 T02080163  RH  075%=      5-min Rain = 0
KCL1 111128Z 17005KT 21/16 A3014 RMK A01 T02080163  RH  075%=      5-min Rain = 0
KCL1 111129Z 17005KT 21/16 A3014 RMK A01 T02090163  RH  075%=      5-min Rain = 0
KCL1 111130Z 17005KT 21/16 A3014 RMK A01 T02090163  RH  075%=      5-min Rain = 0
KCL1 111131Z 17004KT 21/16 A3014 RMK A01 T02080163  RH  075%=      5-min Rain = 0
KCL1 111132Z 17005KT 21/16 A3014 RMK A01 T02090163  RH  075%=      5-min Rain = 0
KCL1 111133Z 17004KT 21/16 A3014 RMK A01 T02090164  RH  075%=      5-min Rain = 0
KCL1 111134Z 17004KT 21/16 A3014 RMK A01 T02090163  RH  075%=      5-min Rain = 0
KCL1 111135Z 18005KT 21/16 A3014 RMK A01 T02090164  RH  075%=      5-min Rain = 0
KCL1 111136Z 18004KT 21/16 A3014 RMK A01 T02090164  RH  075%=      5-min Rain = 0
KCL1 111137Z 18004KT 21/16 A3014 RMK A01 T02090164  RH  075%=      5-min Rain = 0
KCL1 111138Z 18004KT 21/16 A3014 RMK A01 T02090164  RH  075%=      5-min Rain = 0
KCL1 111139Z 18004KT 21/16 A3014 RMK A01 T02100164  RH  075%=      5-min Rain = 0
KCL1 111140Z 18004KT 21/16 A3014 RMK A01 T02100164  RH  075%=      5-min Rain = 0
KCL1 111141Z 18004KT 21/16 A3014 RMK A01 T02110164  RH  075%=      5-min Rain = 0
KCL1 111142Z 18004KT 21/16 A3014 RMK A01 T02110164  RH  075%=      5-min Rain = 0
KCL1 111143Z 18004KT 21/16 A3014 RMK A01 T02110164  RH  075%=      5-min Rain = 0
KCL1 111144Z 18004KT 21/17 A3014 RMK A01 T02120165  RH  075%=      5-min Rain = 0
KCL1 111145Z 18004KT 21/16 A3014 RMK A01 T02110164  RH  074%=      5-min Rain = 0
KCL1 111146Z 18004KT 21/17 A3014 RMK A01 T02120165  RH  074%=      5-min Rain = 0
KCL1 111147Z 18004KT 21/17 A3014 RMK A01 T02120165  RH  074%=      5-min Rain = 0
KCL1 111148Z 17004KT 21/17 A3014 RMK A01 T02120165  RH  075%=      5-min Rain = 0
KCL1 111149Z 17004KT 21/17 A3014 RMK A01 T02110165  RH  075%=      5-min Rain = 0
KCL1 111150Z 18004KT 21/17 A3014 RMK A01 T02110165  RH  075%=      5-min Rain = 0
KCL1 111151Z 17004KT 21/17 A3014 RMK A01 T02110165  RH  075%=      5-min Rain = 0
KCL1 111152Z 17005KT 21/17 A3014 RMK A01 T02110165  RH  075%=      5-min Rain = 0
KCL1 111153Z 17005KT 21/17 A3014 RMK A01 T02100165  RH  075%=      5-min Rain = 0
KCL1 111154Z 17005KT 21/16 A3014 RMK A01 T02100164  RH  075%=      5-min Rain = 0
KCL1 111155Z 17005KT 21/17 A3014 RMK A01 T02110165  RH  075%=      5-min Rain = 0
KCL1 111156Z 17005KT 21/16 A3014 RMK A01 T02100164  RH  075%=      5-min Rain = 0
KCL1 111157Z 17005KT 21/16 A3014 RMK A01 T02100164  RH  075%=      5-min Rain = 0
KCL1 111158Z 17005KT 21/16 A3014 RMK A01 T02100164  RH  075%=      5-min Rain = 0
KCL1 111159Z 17005KT 21/16 A3014 RMK A01 T02100164  RH  075%=      5-min Rain = 0
KCL1 111200Z 18005KT 21/16 A3014 RMK A01 T02100164  RH  075%=      5-min Rain = 0
KCL1 111201Z 18006KT 21/16 A3014 RMK A01 T02100164  RH  075%=      5-min Rain = 0
KCL1 111202Z 18004KT 21/16 A3014 RMK A01 T02100164  RH  075%=      5-min Rain = 0
KCL1 111203Z 18005KT 21/16 A3014 RMK A01 T02100164  RH  075%=      5-min Rain = 0
KCL1 111204Z 18005KT 21/16 A3014 RMK A01 T02110164  RH  074%=      5-min Rain = 0
KCL1 111205Z 18004KT 21/16 A3014 RMK A01 T02110164  RH  074%=      5-min Rain = 0
KCL1 111206Z 18004KT 21/16 A3014 RMK A01 T02110164  RH  075%=      5-min Rain = 0
KCL1 111207Z 19003KT 21/16 A3014 RMK A01 T02100164  RH  075%=      5-min Rain = 0
KCL1 111208Z 18003KT 21/16 A3014 RMK A01 T02100164  RH  075%=      5-min Rain = 0
KCL1 111209Z 19002KT 21/16 A3014 RMK A01 T02100164  RH  075%=      5-min Rain = 0
KCL1 111210Z 20002KT 21/16 A3014 RMK A01 T02100164  RH  075%=      5-min Rain = 0
KCL1 111211Z 22002KT 21/16 A3015 RMK A01 T02100164  RH  075%=      5-min Rain = 0
KCL1 111212Z 25001KT 21/16 A3015 RMK A01 T02100164  RH  075%=      5-min Rain = 0
KCL1 111213Z 26000KT 21/16 A3015 RMK A01 T02100164  RH  075%=      5-min Rain = 0
KCL1 111214Z 00000KT 21/16 A3015 RMK A01 T02100164  RH  075%=      5-min Rain = 0
KCL1 111215Z 00000KT 21/16 A3015 RMK A01 T02100164  RH  075%=      5-min Rain = 0
KCL1 111216Z 00000KT 21/16 A3015 RMK A01 T02100164  RH  075%=      5-min Rain = 0
KCL1 111217Z 00000KT 21/16 A3015 RMK A01 T02100164  RH  075%=      5-min Rain = 0
KCL1 111218Z 00000KT 21/16 A3015 RMK A01 T02100164  RH  075%=      5-min Rain = 0
KCL1 111219Z 00000KT 21/16 A3015 RMK A01 T02100164  RH  075%=      5-min Rain = 0
KCL1 111220Z 00000KT 21/16 A3015 RMK A01 T02100164  RH  075%=      5-min Rain = 0
KCL1 111221Z 00000KT 21/17 A3015 RMK A01 T02100165  RH  075%=      5-min Rain = 0
KCL1 111222Z 00000KT 21/17 A3015 RMK A01 T02100165  RH  075%=      5-min Rain = 0
KCL1 111223Z 17001KT 21/16 A3015 RMK A01 T02100164  RH  075%=      5-min Rain = 0
KCL1 111224Z 17001KT 21/16 A3015 RMK A01 T02100164  RH  075%=      5-min Rain = 0
KCL1 111225Z 18001KT 21/16 A3015 RMK A01 T02100164  RH  075%=      5-min Rain = 0
KCL1 111226Z 17001KT 21/16 A3015 RMK A01 T02100164  RH  075%=      5-min Rain = 0
KCL1 111227Z 18002KT 21/16 A3015 RMK A01 T02100164  RH  075%=      5-min Rain = 0
KCL1 111228Z 17002KT 21/16 A3015 RMK A01 T02100164  RH  075%=      5-min Rain = 0
KCL1 111229Z 17003KT 21/16 A3015 RMK A01 T02090164  RH  075%=      5-min Rain = 0
KCL1 111230Z 18002KT 21/16 A3015 RMK A01 T02090164  RH  076%=      5-min Rain = 0
KCL1 111231Z 17003KT 21/16 A3015 RMK A01 T02080164  RH  076%=      5-min Rain = 0
KCL1 111232Z 17004KT 21/16 A3015 RMK A01 T02080164  RH  076%=      5-min Rain = 0
KCL1 111233Z 18004KT 21/16 A3015 RMK A01 T02070164  RH  076%=      5-min Rain = 0
KCL1 111234Z 18004KT 21/16 A3015 RMK A01 T02080164  RH  076%=      5-min Rain = 0
KCL1 111235Z 18003KT 21/16 A3015 RMK A01 T02090164  RH  076%=      5-min Rain = 0
KCL1 111236Z 18003KT 21/17 A3015 RMK A01 T02090165  RH  076%=      5-min Rain = 0
KCL1 111237Z 18003KT 21/17 A3015 RMK A01 T02090165  RH  076%=      5-min Rain = 0
KCL1 111238Z 18003KT 21/16 A3015 RMK A01 T02090164  RH  076%=      5-min Rain = 0
KCL1 111239Z 19003KT 21/17 A3015 RMK A01 T02090165  RH  076%=      5-min Rain = 0
KCL1 111240Z 19003KT 21/17 A3015 RMK A01 T02100165  RH  075%=      5-min Rain = 0
KCL1 111241Z 21003KT 21/17 A3015 RMK A01 T02110165  RH  075%=      5-min Rain = 0
KCL1 111242Z 22002KT 21/17 A3015 RMK A01 T02130166  RH  074%=      5-min Rain = 0
KCL1 111243Z 22002KT 22/17 A3015 RMK A01 T02150165  RH  073%=      5-min Rain = 0
KCL1 111244Z 22001KT 22/17 A3015 RMK A01 T02160165  RH  073%=      5-min Rain = 0
KCL1 111245Z 22001KT 22/17 A3015 RMK A01 T02180165  RH  072%=      5-min Rain = 0
KCL1 111246Z 23001KT 22/17 A3015 RMK A01 T02190165  RH  071%=      5-min Rain = 0
KCL1 111247Z 21001KT 22/17 A3015 RMK A01 T02200165  RH  071%=      5-min Rain = 0
KCL1 111248Z 20002KT 22/17 A3015 RMK A01 T02210166  RH  071%=      5-min Rain = 0
KCL1 111249Z 20001KT 22/17 A3015 RMK A01 T02220166  RH  070%=      5-min Rain = 0
KCL1 111250Z 19001KT 22/17 A3015 RMK A01 T02230165  RH  070%=      5-min Rain = 0
KCL1 111251Z 19002KT 22/17 A3015 RMK A01 T02230166  RH  070%=      5-min Rain = 0
KCL1 111252Z 20002KT 22/17 A3015 RMK A01 T02240166  RH  070%=      5-min Rain = 0
KCL1 111253Z 20003KT 22/17 A3015 RMK A01 T02230166  RH  070%=      5-min Rain = 0
KCL1 111254Z 20003KT 22/17 A3015 RMK A01 T02240166  RH  070%=      5-min Rain = 0
KCL1 111255Z 20004KT 23/17 A3015 RMK A01 T02250166  RH  069%=      5-min Rain = 0
KCL1 111256Z 19004KT 23/17 A3015 RMK A01 T02250165  RH  069%=      5-min Rain = 0
KCL1 111257Z 19003KT 23/17 A3015 RMK A01 T02260165  RH  069%=      5-min Rain = 0
KCL1 111258Z 20003KT 23/17 A3015 RMK A01 T02260166  RH  069%=      5-min Rain = 0
KCL1 111259Z 19003KT 23/17 A3015 RMK A01 T02260167  RH  069%=      5-min Rain = 0
KCL1 111300Z 19003KT 23/17 A3015 RMK A01 T02260166  RH  069%=      5-min Rain = 0
KCL1 111301Z 19005KT 23/17 A3015 RMK A01 T02260166  RH  069%=      5-min Rain = 0
KCL1 111302Z 20004KT 23/17 A3015 RMK A01 T02260166  RH  069%=      5-min Rain = 0
KCL1 111303Z 19003KT 23/17 A3015 RMK A01 T02260166  RH  069%=      5-min Rain = 0
KCL1 111304Z 20003KT 23/17 A3015 RMK A01 T02270167  RH  069%=      5-min Rain = 0
KCL1 111305Z 18003KT 23/17 A3015 RMK A01 T02280166  RH  068%=      5-min Rain = 0
KCL1 111306Z 19003KT 23/17 A3016 RMK A01 T02290167  RH  068%=      5-min Rain = 0
KCL1 111307Z 19003KT 23/17 A3016 RMK A01 T02300166  RH  068%=      5-min Rain = 0
KCL1 111308Z 19004KT 23/17 A3016 RMK A01 T02300166  RH  067%=      5-min Rain = 0
KCL1 111309Z 19004KT 23/17 A3016 RMK A01 T02300167  RH  067%=      5-min Rain = 0
KCL1 111310Z 19004KT 23/17 A3016 RMK A01 T02310167  RH  067%=      5-min Rain = 0
KCL1 111311Z 18004KT 23/17 A3016 RMK A01 T02320167  RH  067%=      5-min Rain = 0
KCL1 111312Z 18004KT 23/17 A3016 RMK A01 T02310168  RH  067%=      5-min Rain = 0
KCL1 111313Z 18004KT 23/17 A3016 RMK A01 T02330168  RH  067%=      5-min Rain = 0
KCL1 111314Z 19005KT 23/17 A3016 RMK A01 T02330169  RH  067%=      5-min Rain = 0
KCL1 111315Z 19004KT 23/17 A3016 RMK A01 T02340168  RH  066%=      5-min Rain = 0
KCL1 111316Z 17005KT 24/17 A3016 RMK A01 T02350170  RH  067%=      5-min Rain = 0
KCL1 111317Z 17006KT 24/17 A3016 RMK A01 T02350169  RH  066%=      5-min Rain = 0
KCL1 111318Z 18005KT 24/17 A3016 RMK A01 T02350169  RH  066%=      5-min Rain = 0
KCL1 111319Z 17004KT 24/17 A3016 RMK A01 T02360169  RH  066%=      5-min Rain = 0
KCL1 111320Z 17003KT 24/17 A3016 RMK A01 T02360171  RH  067%=      5-min Rain = 0
KCL1 111321Z 17004KT 24/17 A3016 RMK A01 T02370170  RH  066%=      5-min Rain = 0
KCL1 111322Z 18004KT 24/17 A3016 RMK A01 T02380170  RH  065%=      5-min Rain = 0
KCL1 111323Z 19004KT 24/17 A3016 RMK A01 T02380170  RH  066%=      5-min Rain = 0
KCL1 111324Z 18004KT 24/17 A3016 RMK A01 T02390170  RH  065%=      5-min Rain = 0
KCL1 111325Z 18003KT 24/17 A3016 RMK A01 T02390170  RH  065%=      5-min Rain = 0
KCL1 111326Z 19003KT 24/17 A3016 RMK A01 T02390171  RH  066%=      5-min Rain = 0
KCL1 111327Z 20003KT 24/17 A3016 RMK A01 T02400170  RH  065%=      5-min Rain = 0
KCL1 111328Z 18004KT 24/17 A3016 RMK A01 T02400168  RH  064%=      5-min Rain = 0
KCL1 111329Z 19003KT 24/17 A3016 RMK A01 T02400170  RH  065%=      5-min Rain = 0
KCL1 111330Z 19005KT 24/17 A3016 RMK A01 T02400169  RH  064%=      5-min Rain = 0
KCL1 111331Z 18004KT 24/17 A3016 RMK A01 T02400169  RH  065%=      5-min Rain = 0
KCL1 111332Z 18005KT 24/17 A3016 RMK A01 T02400169  RH  065%=      5-min Rain = 0
KCL1 111333Z 19006KT 24/17 A3016 RMK A01 T02400169  RH  065%=      5-min Rain = 0
KCL1 111334Z 19003KT 24/17 A3016 RMK A01 T02400168  RH  064%=      5-min Rain = 0
KCL1 111335Z 18004KT 24/17 A3016 RMK A01 T02390168  RH  064%=      5-min Rain = 0
KCL1 111336Z 17004KT 24/17 A3016 RMK A01 T02400170  RH  065%=      5-min Rain = 0
KCL1 111337Z 17004KT 24/17 A3016 RMK A01 T02410169  RH  064%=      5-min Rain = 0
KCL1 111338Z 17005KT 24/17 A3016 RMK A01 T02410169  RH  064%=      5-min Rain = 0
KCL1 111339Z 17004KT 24/17 A3016 RMK A01 T02410168  RH  064%=      5-min Rain = 0
KCL1 111340Z 18004KT 24/17 A3016 RMK A01 T02420168  RH  064%=      5-min Rain = 0
KCL1 111341Z 20004KT 24/17 A3016 RMK A01 T02420169  RH  064%=      5-min Rain = 0
KCL1 111342Z 18003KT 24/17 A3016 RMK A01 T02420168  RH  063%=      5-min Rain = 0
KCL1 111343Z 20003KT 24/17 A3016 RMK A01 T02420169  RH  064%=      5-min Rain = 0
KCL1 111344Z 19004KT 24/17 A3016 RMK A01 T02430169  RH  063%=      5-min Rain = 0
KCL1 111345Z 18003KT 24/17 A3016 RMK A01 T02430170  RH  064%=      5-min Rain = 0
KCL1 111346Z 19003KT 24/17 A3016 RMK A01 T02440169  RH  063%=      5-min Rain = 0
KCL1 111347Z 18003KT 25/17 A3016 RMK A01 T02450169  RH  063%=      5-min Rain = 0
KCL1 111348Z 21003KT 24/17 A3016 RMK A01 T02440169  RH  063%=      5-min Rain = 0
KCL1 111349Z 20003KT 25/17 A3016 RMK A01 T02450170  RH  063%=      5-min Rain = 0
KCL1 111350Z 18003KT 25/17 A3016 RMK A01 T02460169  RH  062%=      5-min Rain = 0
KCL1 111351Z 19003KT 25/17 A3016 RMK A01 T02470170  RH  062%=      5-min Rain = 0
KCL1 111352Z 20005KT 25/17 A3016 RMK A01 T02480169  RH  061%=      5-min Rain = 0
KCL1 111353Z 18004KT 25/17 A3016 RMK A01 T02480168  RH  061%=      5-min Rain = 0
KCL1 111354Z 18004KT 25/17 A3016 RMK A01 T02480170  RH  062%=      5-min Rain = 0
KCL1 111355Z 19004KT 25/17 A3016 RMK A01 T02490170  RH  062%=      5-min Rain = 0
KCL1 111356Z 18005KT 25/17 A3016 RMK A01 T02490167  RH  060%=      5-min Rain = 0
KCL1 111357Z 18004KT 25/17 A3016 RMK A01 T02490167  RH  060%=      5-min Rain = 0
KCL1 111358Z 20003KT 25/17 A3016 RMK A01 T02490168  RH  061%=      5-min Rain = 0
KCL1 111359Z 19003KT 25/17 A3016 RMK A01 T02500169  RH  061%=      5-min Rain = 0
KCL1 111400Z 16004KT 25/17 A3016 RMK A01 T02500170  RH  061%=      5-min Rain = 0
KCL1 111401Z 16004KT 25/17 A3016 RMK A01 T02510168  RH  060%=      5-min Rain = 0
KCL1 111402Z 16003KT 25/17 A3016 RMK A01 T02510167  RH  060%=      5-min Rain = 0
KCL1 111403Z 17004KT 25/17 A3016 RMK A01 T02500169  RH  061%=      5-min Rain = 0
KCL1 111404Z 16004KT 25/17 A3016 RMK A01 T02510167  RH  060%=      5-min Rain = 0
KCL1 111405Z 19003KT 25/17 A3016 RMK A01 T02510168  RH  060%=      5-min Rain = 0
KCL1 111406Z 19004KT 25/17 A3016 RMK A01 T02530170  RH  060%=      5-min Rain = 0
KCL1 111407Z 15004KT 25/17 A3016 RMK A01 T02540170  RH  060%=      5-min Rain = 0
KCL1 111408Z 15005KT 26/17 A3016 RMK A01 T02550169  RH  059%=      5-min Rain = 0
KCL1 111409Z 17004KT 26/17 A3016 RMK A01 T02560167  RH  058%=      5-min Rain = 0
KCL1 111410Z 18004KT 26/17 A3016 RMK A01 T02550170  RH  059%=      5-min Rain = 0
KCL1 111411Z 18005KT 26/17 A3016 RMK A01 T02550168  RH  059%=      5-min Rain = 0
KCL1 111412Z 20004KT 26/17 A3016 RMK A01 T02550167  RH  058%=      5-min Rain = 0
KCL1 111413Z 20003KT 26/17 A3016 RMK A01 T02560167  RH  058%=      5-min Rain = 0
KCL1 111414Z 18003KT 26/17 A3016 RMK A01 T02560167  RH  058%=      5-min Rain = 0
KCL1 111415Z 22003KT 26/17 A3016 RMK A01 T02570166  RH  057%=      5-min Rain = 0
KCL1 111416Z 21004KT 26/17 A3016 RMK A01 T02580166  RH  057%=      5-min Rain = 0
KCL1 111417Z 19006KT 26/17 A3016 RMK A01 T02600166  RH  056%=      5-min Rain = 0
KCL1 111418Z 19007KT 26/17 A3016 RMK A01 T02610165  RH  055%=      5-min Rain = 0
KCL1 111419Z 18005KT 26/16 A3016 RMK A01 T02620162  RH  054%=      5-min Rain = 0
KCL1 111420Z 20004KT 26/16 A3016 RMK A01 T02630160  RH  053%=      5-min Rain = 0
KCL1 111421Z 20005KT 26/16 A3016 RMK A01 T02640163  RH  054%=      5-min Rain = 0
KCL1 111422Z 20007KT 27/16 A3016 RMK A01 T02650160  RH  053%=      5-min Rain = 0
KCL1 111423Z 19010KT 27/16 A3016 RMK A01 T02660160  RH  052%=      5-min Rain = 0
KCL1 111424Z 18008KT 27/16 A3016 RMK A01 T02680161  RH  052%=      5-min Rain = 0
KCL1 111425Z 19007KT 27/16 A3017 RMK A01 T02680160  RH  052%=      5-min Rain = 0
KCL1 111426Z 20005KT 27/16 A3017 RMK A01 T02690163  RH  052%=      5-min Rain = 0
KCL1 111427Z 19006KT 27/16 A3017 RMK A01 T02700162  RH  051%=      5-min Rain = 0
KCL1 111428Z 18007KT 27/16 A3017 RMK A01 T02710161  RH  051%=      5-min Rain = 0
KCL1 111429Z 17008KT 27/16 A3017 RMK A01 T02710161  RH  051%=      5-min Rain = 0
KCL1 111430Z 18008KT 27/16 A3017 RMK A01 T02700162  RH  051%=      5-min Rain = 0
KCL1 111431Z 19007KT 27/16 A3017 RMK A01 T02700163  RH  052%=      5-min Rain = 0
KCL1 111432Z 17008KT 27/16 A3017 RMK A01 T02700163  RH  052%=      5-min Rain = 0
KCL1 111433Z 18009KT 27/16 A3017 RMK A01 T02700162  RH  052%=      5-min Rain = 0
KCL1 111434Z 20007KT 27/16 A3017 RMK A01 T02670161  RH  052%=      5-min Rain = 0
KCL1 111435Z 21007KT 27/16 A3017 RMK A01 T02660160  RH  052%=      5-min Rain = 0
KCL1 111436Z 21007KT 27/16 A3017 RMK A01 T02650159  RH  052%=      5-min Rain = 0
KCL1 111437Z 19008KT 26/16 A3017 RMK A01 T02640155  RH  051%=      5-min Rain = 0
KCL1 111438Z 19008KT 26/16 A3017 RMK A01 T02630157  RH  052%=      5-min Rain = 0
KCL1 111439Z 20009KT 26/16 A3017 RMK A01 T02630157  RH  052%=      5-min Rain = 0
KCL1 111440Z 19008KT 26/16 A3017 RMK A01 T02620158  RH  053%=      5-min Rain = 0
KCL1 111441Z 18007KT 26/16 A3017 RMK A01 T02620161  RH  054%=      5-min Rain = 0
KCL1 111442Z 18006KT 26/16 A3017 RMK A01 T02620162  RH  054%=      5-min Rain = 0
KCL1 111443Z 17006KT 26/16 A3017 RMK A01 T02620162  RH  054%=      5-min Rain = 0
KCL1 111444Z 18005KT 26/16 A3017 RMK A01 T02620164  RH  055%=      5-min Rain = 0
KCL1 111445Z 19006KT 26/16 A3017 RMK A01 T02610164  RH  055%=      5-min Rain = 0
KCL1 111446Z 17005KT 26/16 A3017 RMK A01 T02610164  RH  055%=      5-min Rain = 0
KCL1 111447Z 17006KT 26/17 A3017 RMK A01 T02610165  RH  055%=      5-min Rain = 0
KCL1 111448Z 17007KT 26/16 A3017 RMK A01 T02620163  RH  054%=      5-min Rain = 0
KCL1 111449Z 17010KT 26/16 A3017 RMK A01 T02630162  RH  054%=      5-min Rain = 0
KCL1 111450Z 16008KT 26/16 A3017 RMK A01 T02640162  RH  054%=      5-min Rain = 0
KCL1 111451Z 16007KT 26/16 A3017 RMK A01 T02640162  RH  053%=      5-min Rain = 0
KCL1 111452Z 16007KT 26/16 A3017 RMK A01 T02640161  RH  053%=      5-min Rain = 0
KCL1 111453Z 17007KT 26/16 A3017 RMK A01 T02640163  RH  054%=      5-min Rain = 0
KCL1 111454Z 19008KT 27/16 A3017 RMK A01 T02650163  RH  053%=      5-min Rain = 0
KCL1 111455Z 18006KT 27/16 A3017 RMK A01 T02650160  RH  052%=      5-min Rain = 0
KCL1 111456Z 18009KT 26/16 A3017 RMK A01 T02640161  RH  053%=      5-min Rain = 0
KCL1 111457Z 18007KT 27/16 A3017 RMK A01 T02650161  RH  053%=      5-min Rain = 0
KCL1 111458Z 19007KT 27/16 A3017 RMK A01 T02650163  RH  053%=      5-min Rain = 0
KCL1 111459Z 18007KT 27/16 A3017 RMK A01 T02670164  RH  053%=      5-min Rain = 0
KCL1 111500Z 19007KT 27/16 A3017 RMK A01 T02690159  RH  051%=      5-min Rain = 0
KCL1 111501Z 19006KT 27/16 A3017 RMK A01 T02700160  RH  051%=      5-min Rain = 0
KCL1 111502Z 17008KT 27/16 A3017 RMK A01 T02690162  RH  052%=      5-min Rain = 0
KCL1 111503Z 17009KT 27/16 A3017 RMK A01 T02700161  RH  051%=      5-min Rain = 0
KCL1 111504Z 17008KT 27/16 A3017 RMK A01 T02710160  RH  051%=      5-min Rain = 0
KCL1 111505Z 17007KT 27/16 A3017 RMK A01 T02710162  RH  051%=      5-min Rain = 0
KCL1 111506Z 18008KT 27/16 A3017 RMK A01 T02720160  RH  051%=      5-min Rain = 0
KCL1 111507Z 18008KT 27/16 A3016 RMK A01 T02720160  RH  050%=      5-min Rain = 0
KCL1 111508Z 19007KT 27/16 A3016 RMK A01 T02720158  RH  049%=      5-min Rain = 0
KCL1 111509Z 18006KT 27/16 A3016 RMK A01 T02730157  RH  049%=      5-min Rain = 0
KCL1 111510Z 17006KT 27/16 A3016 RMK A01 T02730156  RH  049%=      5-min Rain = 0
KCL1 111511Z 17006KT 27/16 A3016 RMK A01 T02730158  RH  049%=      5-min Rain = 0
KCL1 111512Z 16007KT 27/16 A3016 RMK A01 T02740156  RH  049%=      5-min Rain = 0
KCL1 111513Z 17006KT 28/16 A3016 RMK A01 T02750156  RH  048%=      5-min Rain = 0
KCL1 111514Z 17004KT 28/16 A3016 RMK A01 T02760157  RH  048%=      5-min Rain = 0
KCL1 111515Z 19005KT 28/16 A3016 RMK A01 T02770159  RH  049%=      5-min Rain = 0
KCL1 111516Z 19005KT 28/16 A3016 RMK A01 T02790162  RH  049%=      5-min Rain = 0
KCL1 111517Z 18004KT 28/16 A3016 RMK A01 T02810158  RH  047%=      5-min Rain = 0
KCL1 111518Z 20007KT 28/16 A3016 RMK A01 T02820156  RH  046%=      5-min Rain = 0
KCL1 111519Z 17004G9KT 28/16 A3016 RMK A01 T02820158  RH  047%=      5-min Rain = 0
KCL1 111520Z 16009KT 28/16 A3016 RMK A01 T02820159  RH  047%=      5-min Rain = 0
KCL1 111521Z 18007KT 28/16 A3016 RMK A01 T02820158  RH  047%=      5-min Rain = 0
KCL1 111522Z 18005KT 28/16 A3016 RMK A01 T02810159  RH  048%=      5-min Rain = 0
KCL1 111523Z 17006KT 28/16 A3016 RMK A01 T02810159  RH  048%=      5-min Rain = 0
KCL1 111524Z 18006G11KT 28/16 A3016 RMK A01 T02810157  RH  047%=      5-min Rain = 0
KCL1 111525Z 17008KT 28/16 A3016 RMK A01 T02810155  RH  046%=      5-min Rain = 0
KCL1 111526Z 17008KT 28/16 A3016 RMK A01 T02810155  RH  046%=      5-min Rain = 0
KCL1 111527Z 16007KT 28/16 A3016 RMK A01 T02810156  RH  047%=      5-min Rain = 0
KCL1 111528Z 20005KT 28/16 A3016 RMK A01 T02830159  RH  047%=      5-min Rain = 0
KCL1 111529Z 22007G12KT 29/16 A3016 RMK A01 T02850156  RH  045%=      5-min Rain = 0
KCL1 111530Z 23009KT 29/15 A3016 RMK A01 T02860149  RH  043%=      5-min Rain = 0
KCL1 111531Z 20008KT 29/14 A3016 RMK A01 T02870144  RH  042%=      5-min Rain = 0
KCL1 111532Z 19011KT 29/14 A3016 RMK A01 T02870144  RH  042%=      5-min Rain = 0
KCL1 111533Z 19010KT 29/14 A3016 RMK A01 T02870143  RH  041%=      5-min Rain = 0
KCL1 111534Z 21008KT 29/14 A3016 RMK A01 T02870140  RH  040%=      5-min Rain = 0
KCL1 111535Z 20007KT 29/14 A3016 RMK A01 T02870143  RH  041%=      5-min Rain = 0
KCL1 111536Z 22010KT 29/14 A3016 RMK A01 T02880141  RH  041%=      5-min Rain = 0
KCL1 111537Z 23009KT 29/14 A3016 RMK A01 T02870141  RH  041%=      5-min Rain = 0
KCL1 111538Z 23009KT 29/14 A3016 RMK A01 T02870141  RH  041%=      5-min Rain = 0
KCL1 111539Z 20007KT 29/14 A3016 RMK A01 T02870141  RH  041%=      5-min Rain = 0
KCL1 111540Z 18007KT 29/14 A3016 RMK A01 T02880142  RH  041%=      5-min Rain = 0
KCL1 111541Z 21006KT 29/14 A3016 RMK A01 T02890143  RH  041%=      5-min Rain = 0
KCL1 111542Z 23005KT 29/14 A3016 RMK A01 T02900143  RH  041%=      5-min Rain = 0
KCL1 111543Z 20010KT 29/14 A3016 RMK A01 T02910141  RH  040%=      5-min Rain = 0
KCL1 111544Z 23005G10KT 29/14 A3016 RMK A01 T02910141  RH  040%=      5-min Rain = 0
KCL1 111545Z 25006KT 29/14 A3016 RMK A01 T02910141  RH  040%=      5-min Rain = 0
KCL1 111546Z 25006KT 29/14 A3016 RMK A01 T02920140  RH  039%=      5-min Rain = 0
KCL1 111547Z 22006KT 29/14 A3016 RMK A01 T02920140  RH  040%=      5-min Rain = 0
KCL1 111548Z 24006KT 29/14 A3016 RMK A01 T02920142  RH  040%=      5-min Rain = 0
KCL1 111549Z 22005KT 29/14 A3016 RMK A01 T02920141  RH  040%=      5-min Rain = 0
KCL1 111550Z 22005KT 29/14 A3016 RMK A01 T02920141  RH  040%=      5-min Rain = 0
KCL1 111551Z 23008KT 29/14 A3015 RMK A01 T02910142  RH  040%=      5-min Rain = 0
KCL1 111552Z 22007KT 29/14 A3015 RMK A01 T02910142  RH  040%=      5-min Rain = 0
KCL1 111553Z 21007KT 29/14 A3015 RMK A01 T02910141  RH  040%=      5-min Rain = 0
KCL1 111554Z 23007KT 29/14 A3015 RMK A01 T02910142  RH  040%=      5-min Rain = 0
KCL1 111555Z 26005KT 29/14 A3015 RMK A01 T02920143  RH  040%=      5-min Rain = 0
KCL1 111556Z 24007G12KT 29/14 A3015 RMK A01 T02920143  RH  040%=      5-min Rain = 0
KCL1 111557Z 21008KT 29/14 A3015 RMK A01 T02920143  RH  040%=      5-min Rain = 0
KCL1 111558Z 20008KT 29/14 A3015 RMK A01 T02920144  RH  040%=      5-min Rain = 0
KCL1 111559Z 18008KT 29/15 A3015 RMK A01 T02930145  RH  040%=      5-min Rain = 0
KCL1 111600Z 19007KT 29/15 A3015 RMK A01 T02940147  RH  041%=      5-min Rain = 0
KCL1 111601Z 18008KT 29/15 A3015 RMK A01 T02940147  RH  041%=      5-min Rain = 0
KCL1 111602Z 19009KT 29/15 A3015 RMK A01 T02940146  RH  040%=      5-min Rain = 0
KCL1 111603Z 18007KT 30/15 A3015 RMK A01 T02950146  RH  040%=      5-min Rain = 0
KCL1 111604Z 17009KT 30/15 A3015 RMK A01 T02960147  RH  040%=      5-min Rain = 0
KCL1 111605Z 18011KT 30/15 A3015 RMK A01 T02960148  RH  041%=      5-min Rain = 0
KCL1 111606Z 22007KT 30/15 A3015 RMK A01 T02980147  RH  040%=      5-min Rain = 0
KCL1 111607Z 19010KT 30/15 A3015 RMK A01 T02990146  RH  039%=      5-min Rain = 0
KCL1 111608Z 21011KT 30/15 A3015 RMK A01 T02990145  RH  039%=      5-min Rain = 0
KCL1 111609Z 23009KT 30/14 A3015 RMK A01 T02970142  RH  039%=      5-min Rain = 0
KCL1 111610Z 20005KT 29/14 A3015 RMK A01 T02930141  RH  039%=      5-min Rain = 0
KCL1 111611Z 20006KT 29/15 A3015 RMK A01 T02920145  RH  041%=      5-min Rain = 0
KCL1 111612Z 19007KT 29/14 A3015 RMK A01 T02940142  RH  040%=      5-min Rain = 0
KCL1 111613Z 18004KT 30/15 A3015 RMK A01 T02950146  RH  040%=      5-min Rain = 0
KCL1 111614Z 23006KT 30/15 A3015 RMK A01 T02980145  RH  039%=      5-min Rain = 0
KCL1 111615Z 21006KT 30/14 A3015 RMK A01 T02990144  RH  039%=      5-min Rain = 0
KCL1 111616Z 19008KT 30/15 A3015 RMK A01 T03000145  RH  039%=      5-min Rain = 0
KCL1 111617Z 18007KT 30/14 A3015 RMK A01 T03010144  RH  038%=      5-min Rain = 0
KCL1 111618Z 17007KT 30/15 A3015 RMK A01 T03000146  RH  039%=      5-min Rain = 0
KCL1 111619Z 18008KT 30/15 A3015 RMK A01 T03000147  RH  039%=      5-min Rain = 0
KCL1 111620Z 19007KT 30/15 A3015 RMK A01 T03000146  RH  039%=      5-min Rain = 0
KCL1 111621Z 21008KT 30/15 A3015 RMK A01 T03010146  RH  039%=      5-min Rain = 0
KCL1 111622Z 22009KT 30/14 A3015 RMK A01 T03010142  RH  038%=      5-min Rain = 0
KCL1 111623Z 20006KT 30/14 A3015 RMK A01 T02990141  RH  038%=      5-min Rain = 0
KCL1 111624Z 20005G12KT 30/14 A3015 RMK A01 T02970143  RH  039%=      5-min Rain = 0
KCL1 111625Z 19008KT 30/15 A3015 RMK A01 T02980145  RH  039%=      5-min Rain = 0
KCL1 111626Z 17008KT 30/14 A3015 RMK A01 T02990144  RH  039%=      5-min Rain = 0
KCL1 111627Z 17011KT 30/15 A3015 RMK A01 T03000146  RH  039%=      5-min Rain = 0
KCL1 111628Z 16010KT 30/15 A3015 RMK A01 T03030148  RH  039%=      5-min Rain = 0
KCL1 111629Z 17008KT 31/15 A3015 RMK A01 T03050148  RH  039%=      5-min Rain = 0
KCL1 111630Z 17008KT 31/15 A3015 RMK A01 T03070146  RH  038%=      5-min Rain = 0
KCL1 111631Z 15009KT 31/15 A3015 RMK A01 T03070145  RH  037%=      5-min Rain = 0
KCL1 111632Z 15014KT 30/14 A3015 RMK A01 T03040140  RH  037%=      5-min Rain = 0
KCL1 111633Z 17007G12KT 30/14 A3015 RMK A01 T02990139  RH  038%=      5-min Rain = 0
KCL1 111634Z 20008G14KT 30/14 A3015 RMK A01 T02960140  RH  039%=      5-min Rain = 0
KCL1 111635Z 18012KT 30/14 A3015 RMK A01 T02980144  RH  039%=      5-min Rain = 0
KCL1 111636Z 18011KT 30/14 A3015 RMK A01 T03000141  RH  038%=      5-min Rain = 0
KCL1 111637Z 18010KT 30/14 A3015 RMK A01 T03000139  RH  037%=      5-min Rain = 0
KCL1 111638Z 20008KT 30/14 A3015 RMK A01 T02990140  RH  038%=      5-min Rain = 0
KCL1 111639Z 18006KT 30/14 A3015 RMK A01 T02990141  RH  038%=      5-min Rain = 0
KCL1 111640Z 18006KT 30/14 A3015 RMK A01 T03000139  RH  037%=      5-min Rain = 0
KCL1 111641Z 20008KT 30/14 A3015 RMK A01 T03000139  RH  037%=      5-min Rain = 0
KCL1 111642Z 19009KT 30/14 A3015 RMK A01 T03000137  RH  037%=      5-min Rain = 0
KCL1 111643Z 18009KT 30/14 A3015 RMK A01 T02990137  RH  037%=      5-min Rain = 0
KCL1 111644Z 18007KT 30/14 A3015 RMK A01 T03010144  RH  039%=      5-min Rain = 0
KCL1 111645Z 17009KT 31/15 A3015 RMK A01 T03060145  RH  038%=      5-min Rain = 0
KCL1 111646Z 15007KT 31/14 A3015 RMK A01 T03080144  RH  037%=      5-min Rain = 0
KCL1 111647Z 15010G15KT 31/14 A3015 RMK A01 T03070144  RH  037%=      5-min Rain = 0
KCL1 111648Z 15010KT 31/14 A3015 RMK A01 T03070140  RH  036%=      5-min Rain = 0
KCL1 111649Z 15011KT 31/14 A3015 RMK A01 T03080138  RH  036%=      5-min Rain = 0
KCL1 111650Z 15012KT 31/14 A3015 RMK A01 T03080139  RH  036%=      5-min Rain = 0
KCL1 111651Z 16010KT 31/14 A3015 RMK A01 T03080137  RH  035%=      5-min Rain = 0
KCL1 111652Z 19009KT 31/14 A3015 RMK A01 T03080138  RH  036%=      5-min Rain = 0
KCL1 111653Z 18007KT 31/14 A3015 RMK A01 T03080137  RH  035%=      5-min Rain = 0
KCL1 111654Z 20006KT 31/14 A3015 RMK A01 T03070138  RH  036%=      5-min Rain = 0
KCL1 111655Z 20013KT 31/14 A3015 RMK A01 T03060140  RH  036%=      5-min Rain = 0
KCL1 111656Z 22014G19KT 31/14 A3015 RMK A01 T03050139  RH  036%=      5-min Rain = 0
KCL1 111657Z 23010KT 30/14 A3015 RMK A01 T03030140  RH  037%=      5-min Rain = 0
KCL1 111658Z 21006KT 30/14 A3015 RMK A01 T03020140  RH  037%=      5-min Rain = 0
KCL1 111659Z 20004KT 30/14 A3015 RMK A01 T03020143  RH  038%=      5-min Rain = 0
KCL1 111700Z 18008KT 31/15 A3015 RMK A01 T03060146  RH  038%=      5-min Rain = 0
KCL1 111701Z 16010KT 31/15 A3015 RMK A01 T03090146  RH  037%=      5-min Rain = 0
KCL1 111702Z 17012KT 31/14 A3015 RMK A01 T03110141  RH  036%=      5-min Rain = 0
KCL1 111703Z 16012KT 31/14 A3015 RMK A01 T03100138  RH  035%=      5-min Rain = 0
KCL1 111704Z 18009KT 31/14 A3015 RMK A01 T03100141  RH  036%=      5-min Rain = 0
KCL1 111705Z 17012KT 31/14 A3015 RMK A01 T03130139  RH  035%=      5-min Rain = 0
KCL1 111706Z 17010KT 32/13 A3015 RMK A01 T03150132  RH  033%=      5-min Rain = 0
KCL1 111707Z 16013KT 31/13 A3015 RMK A01 T03140134  RH  033%=      5-min Rain = 0
KCL1 111708Z 17011KT 31/13 A3015 RMK A01 T03130134  RH  034%=      5-min Rain = 0
KCL1 111709Z 19011KT 31/13 A3015 RMK A01 T03140134  RH  033%=      5-min Rain = 0
KCL1 111710Z 17012KT 31/13 A3015 RMK A01 T03110127  RH  032%=      5-min Rain = 0
KCL1 111711Z 18012KT 31/12 A3015 RMK A01 T03060124  RH  033%=      5-min Rain = 0
KCL1 111712Z 18013KT 31/13 A3015 RMK A01 T03060127  RH  033%=      5-min Rain = 0
KCL1 111713Z 18012KT 31/13 A3015 RMK A01 T03070131  RH  034%=      5-min Rain = 0
KCL1 111714Z 18011KT 31/14 A3015 RMK A01 T03070135  RH  035%=      5-min Rain = 0
KCL1 111715Z 18008KT 31/13 A3015 RMK A01 T03060134  RH  035%=      5-min Rain = 0
KCL1 111716Z 17007KT 31/14 A3015 RMK A01 T03060137  RH  035%=      5-min Rain = 0
KCL1 111717Z 18008KT 31/14 A3015 RMK A01 T03090140  RH  036%=      5-min Rain = 0
KCL1 111718Z 16009G16KT 31/14 A3014 RMK A01 T03140141  RH  035%=      5-min Rain = 0
KCL1 111719Z 18015G20KT 32/14 A3014 RMK A01 T03180138  RH  033%=      5-min Rain = 0
KCL1 111720Z 18011KT 32/14 A3014 RMK A01 T03160136  RH  033%=      5-min Rain = 0
KCL1 111721Z 18009G14KT 31/14 A3015 RMK A01 T03130138  RH  035%=      5-min Rain = 0
KCL1 111722Z 18009KT 31/14 A3015 RMK A01 T03130135  RH  034%=      5-min Rain = 0
KCL1 111723Z 17009KT 31/13 A3014 RMK A01 T03100133  RH  034%=      5-min Rain = 0
KCL1 111724Z 18008G14KT 31/14 A3014 RMK A01 T03080135  RH  035%=      5-min Rain = 0
KCL1 111725Z 20014KT 31/13 A3014 RMK A01 T03090131  RH  034%=      5-min Rain = 0
KCL1 111726Z 19009KT 31/13 A3014 RMK A01 T03070130  RH  034%=      5-min Rain = 0
KCL1 111727Z 20007KT 31/13 A3014 RMK A01 T03070133  RH  035%=      5-min Rain = 0
KCL1 111728Z 21010G15KT 31/13 A3014 RMK A01 T03100132  RH  034%=      5-min Rain = 0
KCL1 111729Z 20012KT 31/13 A3014 RMK A01 T03120133  RH  033%=      5-min Rain = 0
KCL1 111730Z 19011KT 31/13 A3014 RMK A01 T03130133  RH  033%=      5-min Rain = 0
KCL1 111731Z 17010KT 31/13 A3014 RMK A01 T03130131  RH  033%=      5-min Rain = 0
KCL1 111732Z 17008KT 31/13 A3014 RMK A01 T03100130  RH  033%=      5-min Rain = 0
KCL1 111733Z 18009KT 31/14 A3014 RMK A01 T03090137  RH  035%=      5-min Rain = 0
KCL1 111734Z 17010KT 31/13 A3014 RMK A01 T03110133  RH  034%=      5-min Rain = 0
KCL1 111735Z 19014KT 31/14 A3014 RMK A01 T03130135  RH  034%=      5-min Rain = 0
KCL1 111736Z 19014KT 32/13 A3014 RMK A01 T03150131  RH  032%=      5-min Rain = 0
KCL1 111737Z 19011KT 31/13 A3014 RMK A01 T03140129  RH  032%=      5-min Rain = 0
KCL1 111738Z 18009KT 31/13 A3014 RMK A01 T03130128  RH  032%=      5-min Rain = 0
KCL1 111739Z 18007KT 31/13 A3014 RMK A01 T03110129  RH  033%=      5-min Rain = 0
KCL1 111740Z 19009KT 31/13 A3014 RMK A01 T03110132  RH  033%=      5-min Rain = 0
KCL1 111741Z 19010KT 31/13 A3014 RMK A01 T03130127  RH  032%=      5-min Rain = 0
KCL1 111742Z 18009KT 31/13 A3014 RMK A01 T03140125  RH  031%=      5-min Rain = 0
KCL1 111743Z 19010G16KT 32/13 A3014 RMK A01 T03150129  RH  032%=      5-min Rain = 0
KCL1 111744Z 19011KT 32/13 A3014 RMK A01 T03160126  RH  031%=      5-min Rain = 0
KCL1 111745Z 16013KT 32/12 A3014 RMK A01 T03170120  RH  030%=      5-min Rain = 0
KCL1 111746Z 17014G19KT 32/11 A3014 RMK A01 T03160112  RH  029%=      5-min Rain = 0
KCL1 111747Z 16014KT 32/11 A3014 RMK A01 T03150111  RH  029%=      5-min Rain = 0
KCL1 111748Z 16015KT 32/11 A3013 RMK A01 T03150111  RH  028%=      5-min Rain = 0
KCL1 111749Z 16013G18KT 32/11 A3014 RMK A01 T03160110  RH  028%=      5-min Rain = 0
KCL1 111750Z 16016KT 32/11 A3014 RMK A01 T03150109  RH  028%=      5-min Rain = 0
KCL1 111751Z 15013KT 31/11 A3014 RMK A01 T03130109  RH  028%=      5-min Rain = 0
KCL1 111752Z 17012KT 32/11 A3014 RMK A01 T03150113  RH  029%=      5-min Rain = 0
KCL1 111753Z 16014G19KT 32/11 A3013 RMK A01 T03170112  RH  028%=      5-min Rain = 0
KCL1 111754Z 18016KT 32/11 A3013 RMK A01 T03170113  RH  029%=      5-min Rain = 0
KCL1 111755Z 18014KT 32/11 A3014 RMK A01 T03170110  RH  028%=      5-min Rain = 0
KCL1 111756Z 17016KT 32/11 A3014 RMK A01 T03150111  RH  029%=      5-min Rain = 0
KCL1 111757Z 17012KT 31/11 A3014 RMK A01 T03120110  RH  029%=      5-min Rain = 0
KCL1 111758Z 18014G20KT 31/11 A3014 RMK A01 T03110111  RH  029%=      5-min Rain = 0
KCL1 111759Z 17012KT 31/11 A3014 RMK A01 T03130112  RH  029%=      5-min Rain = 0
KCL1 111800Z 19009KT 32/11 A3014 RMK A01 T03150113  RH  029%=      5-min Rain = 0
KCL1 111801Z 20009G16KT 32/11 A3013 RMK A01 T03160111  RH  028%=      5-min Rain = 0
KCL1 111802Z 17016KT 32/11 A3013 RMK A01 T03150111  RH  029%=      5-min Rain = 0
KCL1 111803Z 15014KT 31/11 A3013 RMK A01 T03140113  RH  029%=      5-min Rain = 0
KCL1 111804Z 18011KT 32/11 A3014 RMK A01 T03150114  RH  029%=      5-min Rain = 0
KCL1 111805Z 17008G13KT 32/11 A3013 RMK A01 T03160113  RH  029%=      5-min Rain = 0
KCL1 111806Z 18006KT 31/11 A3013 RMK A01 T03140114  RH  029%=      5-min Rain = 0
KCL1 111807Z 17007KT 31/12 A3013 RMK A01 T03140116  RH  030%=      5-min Rain = 0
KCL1 111808Z 16013G18KT 31/12 A3013 RMK A01 T03140115  RH  029%=      5-min Rain = 0
KCL1 111809Z 17016G21KT 31/12 A3013 RMK A01 T03140115  RH  029%=      5-min Rain = 0
KCL1 111810Z 16018KT 31/11 A3013 RMK A01 T03120114  RH  030%=      5-min Rain = 0
KCL1 111811Z 16011KT 31/11 A3013 RMK A01 T03100114  RH  030%=      5-min Rain = 0
KCL1 111812Z 14012KT 31/12 A3013 RMK A01 T03090119  RH  031%=      5-min Rain = 0
KCL1 111813Z 14013KT 31/12 A3013 RMK A01 T03100121  RH  031%=      5-min Rain = 0
KCL1 111814Z 14011KT 31/13 A3013 RMK A01 T03140126  RH  032%=      5-min Rain = 0
KCL1 111815Z 13012KT 32/13 A3013 RMK A01 T03190126  RH  031%=      5-min Rain = 0
KCL1 111816Z 13013KT 32/13 A3013 RMK A01 T03230126  RH  030%=      5-min Rain = 0
KCL1 111817Z 16008KT 32/13 A3013 RMK A01 T03240128  RH  030%=      5-min Rain = 0
KCL1 111818Z 19009KT 33/13 A3013 RMK A01 T03250125  RH  030%=      5-min Rain = 0
KCL1 111819Z 16013KT 32/13 A3013 RMK A01 T03240125  RH  030%=      5-min Rain = 0
KCL1 111820Z 16011KT 32/13 A3013 RMK A01 T03230128  RH  030%=      5-min Rain = 0
KCL1 111821Z 17013KT 33/13 A3013 RMK A01 T03260126  RH  030%=      5-min Rain = 0
KCL1 111822Z 19014G19KT 33/12 A3013 RMK A01 T03250122  RH  029%=      5-min Rain = 0
KCL1 111823Z 19010G16KT 32/13 A3013 RMK A01 T03230125  RH  030%=      5-min Rain = 0
KCL1 111824Z 18008KT 33/13 A3013 RMK A01 T03250126  RH  030%=      5-min Rain = 0
KCL1 111825Z 21007G13KT 33/13 A3013 RMK A01 T03250125  RH  030%=      5-min Rain = 0
KCL1 111826Z 20013KT 33/12 A3013 RMK A01 T03250121  RH  029%=      5-min Rain = 0
KCL1 111827Z 18013G20KT 32/12 A3013 RMK A01 T03240123  RH  029%=      5-min Rain = 0
KCL1 111828Z 18012KT 32/12 A3013 RMK A01 T03240123  RH  029%=      5-min Rain = 0
KCL1 111829Z 19011KT 33/12 A3013 RMK A01 T03250121  RH  029%=      5-min Rain = 0
KCL1 111830Z 18008KT 32/12 A3013 RMK A01 T03240120  RH  029%=      5-min Rain = 0
KCL1 111831Z 20009KT 32/12 A3012 RMK A01 T03230121  RH  029%=      5-min Rain = 0
KCL1 111832Z 19010KT 32/12 A3012 RMK A01 T03220119  RH  029%=      5-min Rain = 0
KCL1 111833Z 17009KT 32/12 A3013 RMK A01 T03200120  RH  029%=      5-min Rain = 0
KCL1 111834Z 17009KT 32/12 A3013 RMK A01 T03200120  RH  029%=      5-min Rain = 0
KCL1 111835Z 19013G18KT 32/12 A3013 RMK A01 T03200116  RH  029%=      5-min Rain = 0
KCL1 111836Z 18015G22KT 32/12 A3012 RMK A01 T03200115  RH  029%=      5-min Rain = 0
KCL1 111837Z 18009KT 32/12 A3012 RMK A01 T03170116  RH  029%=      5-min Rain = 0
KCL1 111838Z 21009KT 32/12 A3012 RMK A01 T03160115  RH  029%=      5-min Rain = 0
KCL1 111839Z 21006KT 32/11 A3012 RMK A01 T03160112  RH  029%=      5-min Rain = 0
KCL1 111840Z 19006KT 32/11 A3012 RMK A01 T03170112  RH  028%=      5-min Rain = 0
KCL1 111841Z 19010G15KT 32/11 A3012 RMK A01 T03190111  RH  028%=      5-min Rain = 0
KCL1 111842Z 16019G26KT 32/11 A3012 RMK A01 T03210108  RH  027%=      5-min Rain = 0
KCL1 111843Z 15019KT 32/10 A3012 RMK A01 T03240102  RH  026%=      5-min Rain = 0
KCL1 111844Z 16019G24KT 32/11 A3012 RMK A01 T03230107  RH  026%=      5-min Rain = 0
KCL1 111845Z 16017G22KT 33/11 A3012 RMK A01 T03260111  RH  027%=      5-min Rain = 0
KCL1 111846Z 15012KT 32/11 A3012 RMK A01 T03240112  RH  027%=      5-min Rain = 0
KCL1 111847Z 16011G16KT 32/11 A3012 RMK A01 T03240113  RH  027%=      5-min Rain = 0
KCL1 111848Z 17011KT 33/12 A3012 RMK A01 T03280118  RH  028%=      5-min Rain = 0
KCL1 111849Z 17012KT 33/12 A3012 RMK A01 T03310117  RH  027%=      5-min Rain = 0
KCL1 111850Z 17010G17KT 33/12 A3012 RMK A01 T03310119  RH  028%=      5-min Rain = 0
KCL1 111851Z 16015KT 33/12 A3011 RMK A01 T03290120  RH  028%=      5-min Rain = 0
KCL1 111852Z 15012KT 33/12 A3012 RMK A01 T03250119  RH  028%=      5-min Rain = 0
KCL1 111853Z 15010KT 33/12 A3012 RMK A01 T03250119  RH  028%=      5-min Rain = 0
KCL1 111854Z 16015G23KT 33/12 A3012 RMK A01 T03270117  RH  028%=      5-min Rain = 0
KCL1 111855Z 16014G19KT 32/11 A3012 RMK A01 T03230114  RH  028%=      5-min Rain = 0
KCL1 111856Z 15015KT 32/12 A3012 RMK A01 T03180117  RH  029%=      5-min Rain = 0
KCL1 111857Z 15012KT 32/12 A3012 RMK A01 T03160118  RH  030%=      5-min Rain = 0
KCL1 111858Z 15013G18KT 31/12 A3011 RMK A01 T03140120  RH  030%=      5-min Rain = 0
KCL1 111859Z 15012G17KT 32/12 A3012 RMK A01 T03150121  RH  031%=      5-min Rain = 0
KCL1 111900Z 14012KT 32/12 A3011 RMK A01 T03180122  RH  030%=      5-min Rain = 0
KCL1 111901Z 14012G22KT 32/13 A3011 RMK A01 T03200126  RH  031%=      5-min Rain = 0
KCL1 111902Z 16018G23KT 32/12 A3011 RMK A01 T03240124  RH  030%=      5-min Rain = 0
KCL1 111903Z 16019KT 33/12 A3011 RMK A01 T03250124  RH  029%=      5-min Rain = 0
KCL1 111904Z 16014G19KT 32/12 A3011 RMK A01 T03230123  RH  030%=      5-min Rain = 0
KCL1 111905Z 17012KT 32/13 A3011 RMK A01 T03210125  RH  030%=      5-min Rain = 0
KCL1 111906Z 17008G13KT 32/13 A3011 RMK A01 T03220127  RH  030%=      5-min Rain = 0
KCL1 111907Z 18011KT 32/13 A3011 RMK A01 T03240126  RH  030%=      5-min Rain = 0
KCL1 111908Z 17011KT 33/12 A3011 RMK A01 T03270118  RH  028%=      5-min Rain = 0
KCL1 111909Z 19011G16KT 33/11 A3011 RMK A01 T03290114  RH  027%=      5-min Rain = 0
KCL1 111910Z 19011G16KT 33/11 A3011 RMK A01 T03290111  RH  026%=      5-min Rain = 0
KCL1 111911Z 19013KT 33/11 A3011 RMK A01 T03270110  RH  027%=      5-min Rain = 0
KCL1 111912Z 16015G20KT 33/11 A3011 RMK A01 T03260111  RH  027%=      5-min Rain = 0
KCL1 111913Z 18013KT 33/11 A3011 RMK A01 T03250113  RH  027%=      5-min Rain = 0
KCL1 111914Z 18009G14KT 33/11 A3011 RMK A01 T03250112  RH  027%=      5-min Rain = 0
KCL1 111915Z 15009KT 33/12 A3011 RMK A01 T03250118  RH  028%=      5-min Rain = 0
KCL1 111916Z 17014KT 33/12 A3011 RMK A01 T03290119  RH  028%=      5-min Rain = 0
KCL1 111917Z 18011KT 33/12 A3011 RMK A01 T03310116  RH  027%=      5-min Rain = 0
KCL1 111918Z 17010KT 33/12 A3011 RMK A01 T03310115  RH  027%=      5-min Rain = 0
KCL1 111919Z 19009KT 33/12 A3011 RMK A01 T03320115  RH  027%=      5-min Rain = 0
KCL1 111920Z 19011G17KT 33/11 A3011 RMK A01 T03320111  RH  026%=      5-min Rain = 0
KCL1 111921Z 17016KT 33/12 A3011 RMK A01 T03310115  RH  027%=      5-min Rain = 0
KCL1 111922Z 17013KT 33/12 A3011 RMK A01 T03270118  RH  028%=      5-min Rain = 0
KCL1 111923Z 16010KT 33/12 A3011 RMK A01 T03250123  RH  029%=      5-min Rain = 0
KCL1 111924Z 17011G17KT 33/13 A3011 RMK A01 T03270127  RH  030%=      5-min Rain = 0
KCL1 111925Z 16012KT 33/12 A3011 RMK A01 T03300124  RH  029%=      5-min Rain = 0
KCL1 111926Z 15010KT 33/12 A3011 RMK A01 T03300124  RH  029%=      5-min Rain = 0
KCL1 111927Z 17014G19KT 33/13 A3011 RMK A01 T03330125  RH  028%=      5-min Rain = 0
KCL1 111928Z 18011KT 33/13 A3011 RMK A01 T03340127  RH  028%=      5-min Rain = 0
KCL1 111929Z 18010KT 33/12 A3011 RMK A01 T03310122  RH  028%=      5-min Rain = 0
KCL1 111930Z 15011KT 33/12 A3011 RMK A01 T03270121  RH  029%=      5-min Rain = 0
KCL1 111931Z 18009KT 32/12 A3011 RMK A01 T03230120  RH  029%=      5-min Rain = 0
KCL1 111932Z 19009G14KT 32/12 A3011 RMK A01 T03200124  RH  030%=      5-min Rain = 0
KCL1 111933Z 19012KT 32/13 A301 RMK A01 T03180128  RH  031%=      5-min Rain = 0
KCL1 111934Z 19010KT 32/13 A301 RMK A01 T03150129  RH  032%=      5-min Rain = 0
KCL1 111935Z 18009KT 32/13 A301 RMK A01 T03160130  RH  032%=      5-min Rain = 0
KCL1 111936Z 18010KT 32/13 A301 RMK A01 T03190132  RH  032%=      5-min Rain = 0
KCL1 111937Z 17012KT 32/13 A301 RMK A01 T03220132  RH  031%=      5-min Rain = 0
KCL1 111938Z 20015KT 33/13 A301 RMK A01 T03250131  RH  031%=      5-min Rain = 0
KCL1 111939Z 19012KT 33/13 A301 RMK A01 T03250129  RH  030%=      5-min Rain = 0
KCL1 111940Z 18012KT 32/13 A301 RMK A01 T03240132  RH  031%=      5-min Rain = 0
KCL1 111941Z 16014KT 32/13 A301 RMK A01 T03220131  RH  031%=      5-min Rain = 0
KCL1 111942Z 17012G18KT 32/13 A301 RMK A01 T03220131  RH  031%=      5-min Rain = 0
KCL1 111943Z 16015KT 32/13 A301 RMK A01 T03220130  RH  031%=      5-min Rain = 0
KCL1 111944Z 14013KT 32/13 A301 RMK A01 T03230132  RH  031%=      5-min Rain = 0
KCL1 111945Z 14012KT 33/13 A301 RMK A01 T03250133  RH  031%=      5-min Rain = 0
KCL1 111946Z 16010KT 33/13 A301 RMK A01 T03260133  RH  031%=      5-min Rain = 0
KCL1 111947Z 19010KT 33/13 A301 RMK A01 T03270133  RH  031%=      5-min Rain = 0
KCL1 111948Z 17009KT 33/13 A301 RMK A01 T03260133  RH  031%=      5-min Rain = 0
KCL1 111949Z 19013G21KT 33/14 A301 RMK A01 T03280136  RH  031%=      5-min Rain = 0
KCL1 111950Z 17014G20KT 33/13 A301 RMK A01 T03310128  RH  029%=      5-min Rain = 0
KCL1 111951Z 17014KT 33/13 A301 RMK A01 T03310127  RH  029%=      5-min Rain = 0
KCL1 111952Z 20011KT 33/13 A301 RMK A01 T03280125  RH  029%=      5-min Rain = 0
KCL1 111953Z 18013KT 33/13 A301 RMK A01 T03270126  RH  029%=      5-min Rain = 0
KCL1 111954Z 17015G21KT 33/13 A301 RMK A01 T03290127  RH  029%=      5-min Rain = 0
KCL1 111955Z 16014KT 33/12 A301 RMK A01 T03310122  RH  028%=      5-min Rain = 0
KCL1 111956Z 15015KT 33/13 A301 RMK A01 T03300127  RH  029%=      5-min Rain = 0
KCL1 111957Z 16016KT 33/12 A3009 RMK A01 T03310123  RH  028%=      5-min Rain = 0
KCL1 111958Z 16020G25KT 33/12 A3009 RMK A01 T03300122  RH  028%=      5-min Rain = 0
KCL1 111959Z 16018G23KT 33/12 A3009 RMK A01 T03280123  RH  029%=      5-min Rain = 0
KCL1 112000Z 14015KT 33/13 A3009 RMK A01 T03280125  RH  029%=      5-min Rain = 0
KCL1 112001Z 14012KT 33/13 A3009 RMK A01 T03280127  RH  030%=      5-min Rain = 0
KCL1 112002Z 15014KT 33/13 A3009 RMK A01 T03310128  RH  029%=      5-min Rain = 0
KCL1 112003Z 15016KT 33/13 A3009 RMK A01 T03320131  RH  030%=      5-min Rain = 0
KCL1 112004Z 15018KT 33/13 A3009 RMK A01 T03320130  RH  029%=      5-min Rain = 0
KCL1 112005Z 16012G18KT 33/13 A3009 RMK A01 T03290131  RH  030%=      5-min Rain = 0
KCL1 112006Z 15012KT 33/13 A3009 RMK A01 T03260133  RH  031%=      5-min Rain = 0
KCL1 112007Z 16010KT 33/14 A3009 RMK A01 T03290136  RH  031%=      5-min Rain = 0
KCL1 112008Z 17011KT 33/14 A3009 RMK A01 T03330136  RH  031%=      5-min Rain = 0
KCL1 112009Z 17012KT 34/13 A3009 RMK A01 T03360133  RH  029%=      5-min Rain = 0
KCL1 112010Z 19021G27KT 34/13 A3009 RMK A01 T03360130  RH  029%=      5-min Rain = 0
KCL1 112011Z 18014KT 33/13 A3009 RMK A01 T03300128  RH  029%=      5-min Rain = 0
KCL1 112012Z 18013G19KT 33/13 A3009 RMK A01 T03250131  RH  031%=      5-min Rain = 0
KCL1 112013Z 17014G19KT 33/14 A3009 RMK A01 T03260135  RH  031%=      5-min Rain = 0
KCL1 112014Z 16018KT 33/14 A3009 RMK A01 T03280136  RH  031%=      5-min Rain = 0
KCL1 112015Z 16013KT 33/14 A3009 RMK A01 T03280138  RH  032%=      5-min Rain = 0
KCL1 112016Z 17012KT 33/14 A3009 RMK A01 T03280137  RH  031%=      5-min Rain = 0
KCL1 112017Z 17011KT 33/14 A3009 RMK A01 T03290141  RH  032%=      5-min Rain = 0
KCL1 112018Z 18010G15KT 33/14 A3009 RMK A01 T03320140  RH  031%=      5-min Rain = 0
KCL1 112019Z 19013KT 33/14 A3009 RMK A01 T03320138  RH  031%=      5-min Rain = 0
KCL1 112020Z 18008G19KT 33/14 A3009 RMK A01 T03310137  RH  031%=      5-min Rain = 0
KCL1 112021Z 17018KT 33/14 A3008 RMK A01 T03280137  RH  031%=      5-min Rain = 0
KCL1 112022Z 16017KT 32/13 A3008 RMK A01 T03240134  RH  032%=      5-min Rain = 0
KCL1 112023Z 17012KT 32/13 A3008 RMK A01 T03200134  RH  032%=      5-min Rain = 0
KCL1 112024Z 16016KT 32/14 A3009 RMK A01 T03190136  RH  033%=      5-min Rain = 0
KCL1 112025Z 15017KT 32/14 A3008 RMK A01 T03210136  RH  033%=      5-min Rain = 0
KCL1 112026Z 17012KT 33/14 A3008 RMK A01 T03250140  RH  033%=      5-min Rain = 0
KCL1 112027Z 19015KT 33/14 A3008 RMK A01 T03310140  RH  032%=      5-min Rain = 0
KCL1 112028Z 16015KT 33/14 A3008 RMK A01 T03310139  RH  031%=      5-min Rain = 0
KCL1 112029Z 15017G22KT 33/14 A3008 RMK A01 T03260136  RH  032%=      5-min Rain = 0
KCL1 112030Z 16017KT 32/14 A3008 RMK A01 T03210135  RH  032%=      5-min Rain = 0
KCL1 112031Z 17017KT 32/14 A3008 RMK A01 T03180136  RH  033%=      5-min Rain = 0
KCL1 112032Z 17015G20KT 32/14 A3008 RMK A01 T03170136  RH  033%=      5-min Rain = 0
KCL1 112033Z 17015G21KT 32/14 A3008 RMK A01 T03160137  RH  034%=      5-min Rain = 0
KCL1 112034Z 16013KT 32/14 A3008 RMK A01 T03210139  RH  033%=      5-min Rain = 0
KCL1 112035Z 16010G15KT 33/14 A3008 RMK A01 T03250138  RH  032%=      5-min Rain = 0
KCL1 112036Z 16014KT 33/14 A3008 RMK A01 T03260138  RH  032%=      5-min Rain = 0
KCL1 112037Z 15014KT 33/14 A3008 RMK A01 T03250138  RH  032%=      5-min Rain = 0
KCL1 112038Z 16011KT 32/14 A3008 RMK A01 T03230136  RH  032%=      5-min Rain = 0
KCL1 112039Z 15010KT 32/14 A3008 RMK A01 T03220137  RH  033%=      5-min Rain = 0
KCL1 112040Z 15013G19KT 32/14 A3008 RMK A01 T03240136  RH  032%=      5-min Rain = 0
KCL1 112041Z 13013KT 33/14 A3008 RMK A01 T03250136  RH  032%=      5-min Rain = 0
KCL1 112042Z 16011KT 33/14 A3008 RMK A01 T03250137  RH  032%=      5-min Rain = 0
KCL1 112043Z 17014KT 33/14 A3008 RMK A01 T03280138  RH  032%=      5-min Rain = 0
KCL1 112044Z 17011G17KT 33/14 A3008 RMK A01 T03320141  RH  032%=      5-min Rain = 0
KCL1 112045Z 15011G16KT 34/14 A3008 RMK A01 T03350141  RH  031%=      5-min Rain = 0
KCL1 112046Z 15012KT 33/14 A3008 RMK A01 T03330136  RH  030%=      5-min Rain = 0
KCL1 112047Z 14013KT 33/14 A3007 RMK A01 T03270136  RH  031%=      5-min Rain = 0
KCL1 112048Z 14014KT 33/14 A3007 RMK A01 T03260137  RH  032%=      5-min Rain = 0
KCL1 112049Z 17015KT 33/14 A3007 RMK A01 T03260137  RH  032%=      5-min Rain = 0
KCL1 112050Z 17019G24KT 33/14 A3007 RMK A01 T03280136  RH  031%=      5-min Rain = 0
KCL1 112051Z 16017KT 33/14 A3007 RMK A01 T03280137  RH  031%=      5-min Rain = 0
KCL1 112052Z 15019KT 33/14 A3007 RMK A01 T03280137  RH  031%=      5-min Rain = 0
KCL1 112053Z 15016KT 33/14 A3007 RMK A01 T03270135  RH  031%=      5-min Rain = 0
KCL1 112054Z 15015KT 32/14 A3007 RMK A01 T03240137  RH  032%=      5-min Rain = 0
KCL1 112055Z 14012G17KT 32/14 A3007 RMK A01 T03230136  RH  032%=      5-min Rain = 0
KCL1 112056Z 14015KT 32/14 A3007 RMK A01 T03210135  RH  032%=      5-min Rain = 0
KCL1 112057Z 19012KT 32/14 A3007 RMK A01 T03220138  RH  033%=      5-min Rain = 0
KCL1 112058Z 21014KT 33/13 A3007 RMK A01 T03260134  RH  031%=      5-min Rain = 0
KCL1 112059Z 18014KT 33/14 A3007 RMK A01 T03280135  RH  031%=      5-min Rain = 0
KCL1 112100Z 19011KT 33/14 A3007 RMK A01 T03290136  RH  031%=      5-min Rain = 0
KCL1 112101Z 19011KT 33/14 A3007 RMK A01 T03310138  RH  031%=      5-min Rain = 0
KCL1 112102Z 18017KT 34/14 A3007 RMK A01 T03360139  RH  030%=      5-min Rain = 0
KCL1 112103Z 18014G19KT 34/14 A3007 RMK A01 T03370136  RH  030%=      5-min Rain = 0
KCL1 112104Z 17014KT 34/14 A3007 RMK A01 T03360137  RH  030%=      5-min Rain = 0
KCL1 112105Z 19014KT 33/14 A3007 RMK A01 T03340135  RH  030%=      5-min Rain = 0
KCL1 112106Z 18012KT 33/13 A3007 RMK A01 T03290131  RH  030%=      5-min Rain = 0
KCL1 112107Z 18016G22KT 33/13 A3007 RMK A01 T03250132  RH  031%=      5-min Rain = 0
KCL1 112108Z 17011KT 32/13 A3007 RMK A01 T03220132  RH  032%=      5-min Rain = 0
KCL1 112109Z 18011KT 32/13 A3007 RMK A01 T03210133  RH  032%=      5-min Rain = 0
KCL1 112110Z 20012KT 32/13 A3007 RMK A01 T03230132  RH  031%=      5-min Rain = 0
KCL1 112111Z 21012KT 32/13 A3007 RMK A01 T03230132  RH  031%=      5-min Rain = 0
KCL1 112112Z 18010KT 32/13 A3007 RMK A01 T03240133  RH  031%=      5-min Rain = 0
KCL1 112113Z 18009KT 33/14 A3007 RMK A01 T03280138  RH  032%=      5-min Rain = 0
KCL1 112114Z 19012KT 33/14 A3006 RMK A01 T03330138  RH  031%=      5-min Rain = 0
KCL1 112115Z 19018KT 33/14 A3006 RMK A01 T03330135  RH  030%=      5-min Rain = 0
KCL1 112116Z 19017G22KT 33/14 A3006 RMK A01 T03310135  RH  031%=      5-min Rain = 0
KCL1 112117Z 17011KT 33/14 A3006 RMK A01 T03300138  RH  031%=      5-min Rain = 0
KCL1 112118Z 17015G22KT 33/14 A3006 RMK A01 T03310138  RH  031%=      5-min Rain = 0
KCL1 112119Z 19012G19KT 33/14 A3006 RMK A01 T03320139  RH  031%=      5-min Rain = 0
KCL1 112120Z 19011KT 33/14 A3006 RMK A01 T03340138  RH  031%=      5-min Rain = 0
KCL1 112121Z 20013G20KT 34/14 A3006 RMK A01 T03350139  RH  031%=      5-min Rain = 0
KCL1 112122Z 20014KT 34/14 A3006 RMK A01 T03350137  RH  030%=      5-min Rain = 0
KCL1 112123Z 16012G17KT 33/14 A3006 RMK A01 T03330138  RH  031%=      5-min Rain = 0
KCL1 112124Z 16014KT 33/14 A3006 RMK A01 T03330139  RH  031%=      5-min Rain = 0
KCL1 112125Z 15011KT 33/14 A3006 RMK A01 T03320138  RH  031%=      5-min Rain = 0
KCL1 112126Z 16009KT 33/14 A3006 RMK A01 T03310139  RH  031%=      5-min Rain = 0
KCL1 112127Z 15010KT 33/14 A3006 RMK A01 T03330140  RH  031%=      5-min Rain = 0
KCL1 112128Z 16010KT 34/14 A3006 RMK A01 T03360142  RH  031%=      5-min Rain = 0
KCL1 112129Z 15011KT 34/14 A3006 RMK A01 T03380141  RH  031%=      5-min Rain = 0
KCL1 112130Z 16014KT 34/14 A3006 RMK A01 T03390139  RH  030%=      5-min Rain = 0
KCL1 112131Z 16012KT 34/14 A3006 RMK A01 T03350140  RH  031%=      5-min Rain = 0
KCL1 112132Z 15017G22KT 34/14 A3006 RMK A01 T03370142  RH  031%=      5-min Rain = 0
KCL1 112133Z 16017KT 34/14 A3006 RMK A01 T03370139  RH  030%=      5-min Rain = 0
KCL1 112134Z 16011G16KT 33/14 A3006 RMK A01 T03330138  RH  031%=      5-min Rain = 0
KCL1 112135Z 16012KT 33/14 A3005 RMK A01 T03300139  RH  032%=      5-min Rain = 0
KCL1 112136Z 15011KT 33/14 A3005 RMK A01 T03300139  RH  032%=      5-min Rain = 0
KCL1 112137Z 16010G16KT 33/14 A3005 RMK A01 T03310139  RH  031%=      5-min Rain = 0
KCL1 112138Z 17013KT 33/14 A3005 RMK A01 T03310139  RH  031%=      5-min Rain = 0
KCL1 112139Z 15016KT 33/14 A3005 RMK A01 T03310139  RH  031%=      5-min Rain = 0
KCL1 112140Z 15015KT 33/14 A3005 RMK A01 T03280136  RH  031%=      5-min Rain = 0
KCL1 112141Z 13015KT 32/13 A3005 RMK A01 T03220134  RH  032%=      5-min Rain = 0
KCL1 112142Z 13013KT 32/14 A3005 RMK A01 T03200135  RH  033%=      5-min Rain = 0
KCL1 112143Z 13013KT 32/14 A3005 RMK A01 T03200135  RH  032%=      5-min Rain = 0
KCL1 112144Z 14013G20KT 32/14 A3005 RMK A01 T03230137  RH  032%=      5-min Rain = 0
KCL1 112145Z 14012KT 33/14 A3005 RMK A01 T03260139  RH  032%=      5-min Rain = 0
KCL1 112146Z 13013G18KT 33/14 A3005 RMK A01 T03280139  RH  032%=      5-min Rain = 0
KCL1 112147Z 15015KT 33/14 A3005 RMK A01 T03290142  RH  032%=      5-min Rain = 0
KCL1 112148Z 14013KT 33/14 A3005 RMK A01 T03310140  RH  032%=      5-min Rain = 0
KCL1 112149Z 14015KT 33/14 A3005 RMK A01 T03310140  RH  032%=      5-min Rain = 0
KCL1 112150Z 13011KT 33/14 A3005 RMK A01 T03280140  RH  032%=      5-min Rain = 0
KCL1 112151Z 12017KT 33/14 A3005 RMK A01 T03270139  RH  032%=      5-min Rain = 0
KCL1 112152Z 13016KT 33/14 A3004 RMK A01 T03260140  RH  032%=      5-min Rain = 0
KCL1 112153Z 16017KT 33/14 A3004 RMK A01 T03290142  RH  032%=      5-min Rain = 0
KCL1 112154Z 19013G18KT 33/14 A3004 RMK A01 T03330143  RH  032%=      5-min Rain = 0
KCL1 112155Z 18020KT 34/14 A3004 RMK A01 T03360142  RH  031%=      5-min Rain = 0
KCL1 112156Z 18016KT 33/14 A3004 RMK A01 T03340140  RH  031%=      5-min Rain = 0
KCL1 112157Z 17015G20KT 33/14 A3005 RMK A01 T03320142  RH  032%=      5-min Rain = 0
KCL1 112158Z 18016G22KT 33/14 A3005 RMK A01 T03330143  RH  032%=      5-min Rain = 0
KCL1 112159Z 17014KT 33/14 A3005 RMK A01 T03320140  RH  031%=      5-min Rain = 0
KCL1 112200Z 16011KT 33/14 A3005 RMK A01 T03280140  RH  032%=      5-min Rain = 0
KCL1 112201Z 15011KT 33/14 A3005 RMK A01 T03270142  RH  033%=      5-min Rain = 0
KCL1 112202Z 15009G14KT 33/14 A3005 RMK A01 T03270142  RH  033%=      5-min Rain = 0
KCL1 112203Z 14014KT 33/14 A3005 RMK A01 T03260141  RH  033%=      5-min Rain = 0
KCL1 112204Z 15013G18KT 32/14 A3005 RMK A01 T03230139  RH  033%=      5-min Rain = 0
KCL1 112205Z 16008KT 32/14 A3005 RMK A01 T03220140  RH  033%=      5-min Rain = 0
KCL1 112206Z 18009KT 32/14 A3005 RMK A01 T03220141  RH  033%=      5-min Rain = 0
KCL1 112207Z 18012KT 32/14 A3005 RMK A01 T03220139  RH  033%=      5-min Rain = 0
KCL1 112208Z 17014KT 32/14 A3005 RMK A01 T03230137  RH  032%=      5-min Rain = 0
KCL1 112209Z 17011KT 32/14 A3005 RMK A01 T03220138  RH  033%=      5-min Rain = 0
KCL1 112210Z 18012KT 32/14 A3005 RMK A01 T03210138  RH  033%=      5-min Rain = 0
KCL1 112211Z 18010KT 32/14 A3005 RMK A01 T03210138  RH  033%=      5-min Rain = 0
KCL1 112212Z 18009KT 32/14 A3005 RMK A01 T03210139  RH  033%=      5-min Rain = 0
KCL1 112213Z 18009KT 32/14 A3004 RMK A01 T03210139  RH  033%=      5-min Rain = 0
KCL1 112214Z 18010KT 32/14 A3004 RMK A01 T03220139  RH  033%=      5-min Rain = 0
KCL1 112215Z 18012KT 32/14 A3004 RMK A01 T03230140  RH  033%=      5-min Rain = 0
KCL1 112216Z 18012KT 33/14 A3004 RMK A01 T03270140  RH  032%=      5-min Rain = 0
KCL1 112217Z 17010KT 33/14 A3004 RMK A01 T03290140  RH  032%=      5-min Rain = 0
KCL1 112218Z 17011KT 33/14 A3004 RMK A01 T03300139  RH  032%=      5-min Rain = 0
KCL1 112219Z 18010KT 33/14 A3004 RMK A01 T03290139  RH  032%=      5-min Rain = 0
KCL1 112220Z 19009KT 33/14 A3004 RMK A01 T03270139  RH  032%=      5-min Rain = 0
KCL1 112221Z 19009KT 33/14 A3004 RMK A01 T03260138  RH  032%=      5-min Rain = 0
KCL1 112222Z 16013KT 32/14 A3004 RMK A01 T03240137  RH  032%=      5-min Rain = 0
KCL1 112223Z 15013KT 32/14 A3004 RMK A01 T03230136  RH  032%=      5-min Rain = 0
KCL1 112224Z 17010KT 32/14 A3004 RMK A01 T03220138  RH  033%=      5-min Rain = 0
KCL1 112225Z 19008KT 33/14 A3004 RMK A01 T03250141  RH  033%=      5-min Rain = 0
KCL1 112226Z 18011G17KT 33/14 A3004 RMK A01 T03290143  RH  032%=      5-min Rain = 0
KCL1 112227Z 17016KT 33/14 A3004 RMK A01 T03310142  RH  032%=      5-min Rain = 0
KCL1 112228Z 18017KT 33/14 A3004 RMK A01 T03280139  RH  032%=      5-min Rain = 0
KCL1 112229Z 18013G19KT 32/14 A3004 RMK A01 T03240138  RH  032%=      5-min Rain = 0
KCL1 112230Z 18014KT 32/14 A3004 RMK A01 T03210138  RH  033%=      5-min Rain = 0
KCL1 112231Z 18012KT 32/14 A3004 RMK A01 T03200137  RH  033%=      5-min Rain = 0
KCL1 112232Z 18013G18KT 32/14 A3004 RMK A01 T03210139  RH  033%=      5-min Rain = 0
KCL1 112233Z 19013G19KT 32/14 A3004 RMK A01 T03240138  RH  032%=      5-min Rain = 0
KCL1 112234Z 17015KT 33/14 A3004 RMK A01 T03250138  RH  032%=      5-min Rain = 0
KCL1 112235Z 17012G18KT 33/14 A3004 RMK A01 T03260138  RH  032%=      5-min Rain = 0
KCL1 112236Z 17011KT 33/14 A3004 RMK A01 T03250139  RH  032%=      5-min Rain = 0
KCL1 112237Z 16012KT 33/14 A3004 RMK A01 T03250139  RH  032%=      5-min Rain = 0
KCL1 112238Z 17011KT 33/14 A3004 RMK A01 T03250139  RH  032%=      5-min Rain = 0
KCL1 112239Z 18013G18KT 33/14 A3004 RMK A01 T03260137  RH  032%=      5-min Rain = 0
KCL1 112240Z 17016KT 33/14 A3004 RMK A01 T03290138  RH  032%=      5-min Rain = 0
KCL1 112241Z 18017KT 33/14 A3004 RMK A01 T03280136  RH  031%=      5-min Rain = 0
KCL1 112242Z 18013G20KT 33/14 A3004 RMK A01 T03270135  RH  031%=      5-min Rain = 0
KCL1 112243Z 20010KT 33/14 A3004 RMK A01 T03250136  RH  032%=      5-min Rain = 0
KCL1 112244Z 19009KT 33/14 A3004 RMK A01 T03250135  RH  031%=      5-min Rain = 0
KCL1 112245Z 19013KT 33/14 A3004 RMK A01 T03250135  RH  032%=      5-min Rain = 0
KCL1 112246Z 19012KT 32/14 A3004 RMK A01 T03240136  RH  032%=      5-min Rain = 0
KCL1 112247Z 19016G21KT 32/13 A3003 RMK A01 T03240134  RH  032%=      5-min Rain = 0
KCL1 112248Z 18015G20KT 33/13 A3004 RMK A01 T03250134  RH  031%=      5-min Rain = 0
KCL1 112249Z 20015KT 32/13 A3004 RMK A01 T03240134  RH  031%=      5-min Rain = 0
KCL1 112250Z 20014G21KT 32/13 A3004 RMK A01 T03220133  RH  032%=      5-min Rain = 0
KCL1 112251Z 21011G17KT 32/13 A3004 RMK A01 T03210133  RH  032%=      5-min Rain = 0
KCL1 112252Z 20009KT 32/13 A3004 RMK A01 T03210133  RH  032%=      5-min Rain = 0
KCL1 112253Z 18009KT 32/13 A3004 RMK A01 T03210133  RH  032%=      5-min Rain = 0
KCL1 112254Z 17013G20KT 32/14 A3004 RMK A01 T03220135  RH  032%=      5-min Rain = 0
KCL1 112255Z 17014KT 32/13 A3004 RMK A01 T03240133  RH  031%=      5-min Rain = 0
KCL1 112256Z 16012KT 32/13 A3004 RMK A01 T03240134  RH  032%=      5-min Rain = 0
KCL1 112257Z 17014G19KT 33/14 A3004 RMK A01 T03250135  RH  032%=      5-min Rain = 0
KCL1 112258Z 17013KT 33/13 A3004 RMK A01 T03250134  RH  031%=      5-min Rain = 0
KCL1 112259Z 17013KT 32/14 A3004 RMK A01 T03240135  RH  032%=      5-min Rain = 0
KCL1 112300Z 17014G20KT 32/13 A3004 RMK A01 T03220134  RH  032%=      5-min Rain = 0
KCL1 112301Z 16016KT 32/13 A3004 RMK A01 T03230134  RH  032%=      5-min Rain = 0
KCL1 112302Z 16018KT 32/13 A3004 RMK A01 T03240134  RH  032%=      5-min Rain = 0
KCL1 112303Z 17015KT 33/14 A3004 RMK A01 T03250136  RH  032%=      5-min Rain = 0
KCL1 112304Z 17015KT 33/14 A3004 RMK A01 T03270136  RH  031%=      5-min Rain = 0
KCL1 112305Z 18017KT 33/14 A3004 RMK A01 T03270136  RH  031%=      5-min Rain = 0
KCL1 112306Z 18013KT 33/14 A3004 RMK A01 T03260135  RH  032%=      5-min Rain = 0
KCL1 112307Z 18010KT 33/14 A3004 RMK A01 T03260136  RH  032%=      5-min Rain = 0
KCL1 112308Z 18012KT 33/14 A3004 RMK A01 T03280137  RH  031%=      5-min Rain = 0
KCL1 112309Z 16011KT 33/14 A3004 RMK A01 T03290136  RH  031%=      5-min Rain = 0
KCL1 112310Z 17011KT 33/14 A3004 RMK A01 T03270135  RH  031%=      5-min Rain = 0
KCL1 112311Z 17011KT 33/14 A3004 RMK A01 T03250135  RH  032%=      5-min Rain = 0
KCL1 112312Z 18011KT 32/13 A3004 RMK A01 T03240134  RH  032%=      5-min Rain = 0
KCL1 112313Z 18011KT 33/13 A3004 RMK A01 T03250134  RH  031%=      5-min Rain = 0
KCL1 112314Z 18009KT 32/14 A3004 RMK A01 T03240135  RH  032%=      5-min Rain = 0
KCL1 112315Z 17010KT 32/14 A3004 RMK A01 T03230135  RH  032%=      5-min Rain = 0
KCL1 112316Z 17011KT 32/13 A3004 RMK A01 T03220134  RH  032%=      5-min Rain = 0
KCL1 112317Z 17012KT 32/13 A3004 RMK A01 T03200134  RH  032%=      5-min Rain = 0
KCL1 112318Z 17011KT 32/14 A3004 RMK A01 T03190135  RH  033%=      5-min Rain = 0
KCL1 112319Z 17011KT 32/14 A3004 RMK A01 T03190135  RH  033%=      5-min Rain = 0
KCL1 112320Z 18011G16KT 32/14 A3004 RMK A01 T03190135  RH  033%=      5-min Rain = 0
KCL1 112321Z 18011KT 32/14 A3004 RMK A01 T03190135  RH  033%=      5-min Rain = 0
KCL1 112322Z 17012G18KT 32/14 A3004 RMK A01 T03180135  RH  033%=      5-min Rain = 0
KCL1 112323Z 17012KT 32/14 A3004 RMK A01 T03170135  RH  033%=      5-min Rain = 0
KCL1 112324Z 19013KT 32/14 A3004 RMK A01 T03170136  RH  033%=      5-min Rain = 0
KCL1 112325Z 19008KT 32/14 A3004 RMK A01 T03170135  RH  033%=      5-min Rain = 0
KCL1 112326Z 19010G15KT 32/14 A3004 RMK A01 T03170136  RH  033%=      5-min Rain = 0
KCL1 112327Z 17012KT 32/14 A3004 RMK A01 T03180135  RH  033%=      5-min Rain = 0
KCL1 112328Z 18012KT 32/14 A3004 RMK A01 T03180136  RH  033%=      5-min Rain = 0
KCL1 112329Z 18011G16KT 32/14 A3004 RMK A01 T03170135  RH  033%=      5-min Rain = 0
KCL1 112330Z 19011KT 32/14 A3004 RMK A01 T03170135  RH  033%=      5-min Rain = 0
KCL1 112331Z 17009KT 32/14 A3004 RMK A01 T03170135  RH  033%=      5-min Rain = 0
KCL1 112332Z 19009KT 32/14 A3004 RMK A01 T03170135  RH  033%=      5-min Rain = 0
KCL1 112333Z 18008KT 32/14 A3004 RMK A01 T03180135  RH  033%=      5-min Rain = 0
KCL1 112334Z 17006KT 32/14 A3004 RMK A01 T03180137  RH  033%=      5-min Rain = 0
KCL1 112335Z 16010G15KT 32/14 A3004 RMK A01 T03190136  RH  033%=      5-min Rain = 0
KCL1 112336Z 17014KT 32/14 A3004 RMK A01 T03190136  RH  033%=      5-min Rain = 0
KCL1 112337Z 17015KT 32/14 A3004 RMK A01 T03200135  RH  033%=      5-min Rain = 0
KCL1 112338Z 17014KT 32/14 A3004 RMK A01 T03200135  RH  032%=      5-min Rain = 0
KCL1 112339Z 17015KT 32/14 A3004 RMK A01 T03220135  RH  032%=      5-min Rain = 0
KCL1 112340Z 18014KT 32/14 A3004 RMK A01 T03230135  RH  032%=      5-min Rain = 0
KCL1 112341Z 16010G15KT 32/14 A3004 RMK A01 T03230135  RH  032%=      5-min Rain = 0
KCL1 112342Z 17010KT 32/14 A3004 RMK A01 T03240136  RH  032%=      5-min Rain = 0
KCL1 112343Z 17011KT 33/14 A3004 RMK A01 T03260138  RH  032%=      5-min Rain = 0
KCL1 112344Z 17008KT 33/14 A3004 RMK A01 T03290139  RH  032%=      5-min Rain = 0
KCL1 112345Z 17008KT 33/14 A3004 RMK A01 T03300139  RH  032%=      5-min Rain = 0
KCL1 112346Z 17011G16KT 33/14 A3004 RMK A01 T03300138  RH  031%=      5-min Rain = 0
KCL1 112347Z 17011KT 33/14 A3004 RMK A01 T03300139  RH  032%=      5-min Rain = 0
KCL1 112348Z 16014KT 33/14 A3004 RMK A01 T03290138  RH  032%=      5-min Rain = 0
KCL1 112349Z 16014KT 33/14 A3004 RMK A01 T03260136  RH  032%=      5-min Rain = 0
KCL1 112350Z 17012KT 32/14 A3004 RMK A01 T03230136  RH  032%=      5-min Rain = 0
KCL1 112351Z 15012KT 32/14 A3004 RMK A01 T03210137  RH  033%=      5-min Rain = 0
KCL1 112352Z 19011KT 32/14 A3004 RMK A01 T03200136  RH  033%=      5-min Rain = 0
KCL1 112353Z 20011KT 32/14 A3004 RMK A01 T03200136  RH  033%=      5-min Rain = 0
KCL1 112354Z 20009KT 32/14 A3004 RMK A01 T03210135  RH  032%=      5-min Rain = 0
KCL1 112355Z 18008KT 32/14 A3004 RMK A01 T03210136  RH  033%=      5-min Rain = 0
KCL1 112356Z 18009KT 32/14 A3004 RMK A01 T03220136  RH  032%=      5-min Rain = 0
KCL1 112357Z 19010KT 32/14 A3004 RMK A01 T03220136  RH  032%=      5-min Rain = 0
KCL1 112358Z 18010KT 32/14 A3004 RMK A01 T03210136  RH  032%=      5-min Rain = 0
KCL1 112359Z 18010KT 32/14 A3004 RMK A01 T03210136  RH  033%=      5-min Rain = 0
KCL1 120000Z 19009KT 32/14 A3004 RMK A01 T03210136  RH  033%=      5-min Rain = 0
KCL1 120001Z 18007KT 32/14 A3004 RMK A01 T03210137  RH  033%=      5-min Rain = 0
KCL1 120002Z 19009KT 32/14 A3004 RMK A01 T03210135  RH  032%=      5-min Rain = 0
KCL1 120003Z 20009KT 32/14 A3004 RMK A01 T03210135  RH  032%=      5-min Rain = 0
KCL1 120004Z 18009KT 32/13 A3004 RMK A01 T03210134  RH  032%=      5-min Rain = 0
KCL1 120005Z 17009KT 32/13 A3004 RMK A01 T03200134  RH  032%=      5-min Rain = 0
KCL1 120006Z 17008KT 32/14 A3004 RMK A01 T03190135  RH  033%=      5-min Rain = 0
KCL1 120007Z 18011KT 32/13 A3004 RMK A01 T03190134  RH  032%=      5-min Rain = 0
KCL1 120008Z 18012KT 32/13 A3004 RMK A01 T03180133  RH  032%=      5-min Rain = 0
KCL1 120009Z 17016KT 32/13 A3004 RMK A01 T03180132  RH  032%=      5-min Rain = 0
KCL1 120010Z 17012KT 32/13 A3004 RMK A01 T03170131  RH  032%=      5-min Rain = 0
KCL1 120011Z 18011KT 32/13 A3004 RMK A01 T03170132  RH  032%=      5-min Rain = 0
KCL1 120012Z 18014KT 32/13 A3004 RMK A01 T03170131  RH  032%=      5-min Rain = 0
KCL1 120013Z 18013KT 32/13 A3004 RMK A01 T03160130  RH  032%=      5-min Rain = 0
KCL1 120014Z 17013KT 32/13 A3004 RMK A01 T03170131  RH  032%=      5-min Rain = 0
KCL1 120015Z 18009G16KT 32/13 A3004 RMK A01 T03180131  RH  032%=      5-min Rain = 0
KCL1 120016Z 17011G16KT 32/13 A3004 RMK A01 T03190132  RH  032%=      5-min Rain = 0
KCL1 120017Z 17013G18KT 32/13 A3004 RMK A01 T03210132  RH  032%=      5-min Rain = 0
KCL1 120018Z 18014KT 32/13 A3004 RMK A01 T03210131  RH  031%=      5-min Rain = 0
KCL1 120019Z 17015KT 32/13 A3004 RMK A01 T03190130  RH  032%=      5-min Rain = 0
KCL1 120020Z 17014KT 32/13 A3004 RMK A01 T03180130  RH  032%=      5-min Rain = 0
KCL1 120021Z 17015KT 32/13 A3004 RMK A01 T03170129  RH  032%=      5-min Rain = 0
KCL1 120022Z 17011KT 32/13 A3004 RMK A01 T03170130  RH  032%=      5-min Rain = 0
KCL1 120023Z 17013KT 32/13 A3004 RMK A01 T03160129  RH  032%=      5-min Rain = 0
KCL1 120024Z 17009KT 32/13 A3004 RMK A01 T03160129  RH  032%=      5-min Rain = 0
KCL1 120025Z 17012KT 32/13 A3004 RMK A01 T03170130  RH  032%=      5-min Rain = 0
KCL1 120026Z 18014G19KT 32/13 A3004 RMK A01 T03170130  RH  032%=      5-min Rain = 0
KCL1 120027Z 17013G18KT 32/13 A3004 RMK A01 T03180130  RH  032%=      5-min Rain = 0
KCL1 120028Z 17014G21KT 32/13 A3004 RMK A01 T03190129  RH  032%=      5-min Rain = 0
KCL1 120029Z 16014G19KT 32/13 A3004 RMK A01 T03190129  RH  031%=      5-min Rain = 0
KCL1 120030Z 16012KT 32/13 A3004 RMK A01 T03190129  RH  031%=      5-min Rain = 0
KCL1 120031Z 17010G15KT 32/13 A3004 RMK A01 T03190130  RH  032%=      5-min Rain = 0
KCL1 120032Z 18011KT 32/13 A3004 RMK A01 T03210130  RH  031%=      5-min Rain = 0
KCL1 120033Z 17013KT 32/13 A3004 RMK A01 T03210130  RH  031%=      5-min Rain = 0
KCL1 120034Z 18011KT 32/13 A3005 RMK A01 T03210130  RH  031%=      5-min Rain = 0
KCL1 120035Z 17011KT 32/13 A3004 RMK A01 T03210130  RH  031%=      5-min Rain = 0
KCL1 120036Z 17010KT 32/13 A3005 RMK A01 T03210131  RH  031%=      5-min Rain = 0
KCL1 120037Z 16012KT 32/13 A3004 RMK A01 T03220131  RH  031%=      5-min Rain = 0
KCL1 120038Z 17011KT 32/13 A3005 RMK A01 T03220130  RH  031%=      5-min Rain = 0
KCL1 120039Z 18007KT 32/13 A3005 RMK A01 T03220131  RH  031%=      5-min Rain = 0
KCL1 120040Z 16009KT 32/13 A3005 RMK A01 T03230131  RH  031%=      5-min Rain = 0
KCL1 120041Z 16010KT 32/13 A3005 RMK A01 T03230131  RH  031%=      5-min Rain = 0
KCL1 120042Z 18009KT 32/13 A3005 RMK A01 T03220131  RH  031%=      5-min Rain = 0
KCL1 120043Z 19010KT 32/13 A3005 RMK A01 T03230130  RH  031%=      5-min Rain = 0
KCL1 120044Z 19009G15KT 32/13 A3005 RMK A01 T03220130  RH  031%=      5-min Rain = 0
KCL1 120045Z 19014KT 32/13 A3005 RMK A01 T03220127  RH  031%=      5-min Rain = 0
KCL1 120046Z 18013KT 32/13 A3005 RMK A01 T03220127  RH  031%=      5-min Rain = 0
KCL1 120047Z 18011KT 32/13 A3005 RMK A01 T03210127  RH  031%=      5-min Rain = 0
KCL1 120048Z 17011KT 32/13 A3005 RMK A01 T03210128  RH  031%=      5-min Rain = 0
KCL1 120049Z 17012KT 32/13 A3005 RMK A01 T03210128  RH  031%=      5-min Rain = 0
KCL1 120050Z 16012KT 32/13 A3005 RMK A01 T03210127  RH  031%=      5-min Rain = 0
KCL1 120051Z 16010G20KT 32/13 A3005 RMK A01 T03210127  RH  031%=      5-min Rain = 0
KCL1 120052Z 16014G20KT 32/13 A3005 RMK A01 T03200126  RH  031%=      5-min Rain = 0
KCL1 120053Z 15012KT 32/13 A3005 RMK A01 T03200126  RH  031%=      5-min Rain = 0
KCL1 120054Z 17009KT 32/13 A3005 RMK A01 T03200127  RH  031%=      5-min Rain = 0
KCL1 120055Z 18008KT 32/13 A3005 RMK A01 T03200127  RH  031%=      5-min Rain = 0
KCL1 120056Z 17010KT 32/13 A3005 RMK A01 T03210127  RH  031%=      5-min Rain = 0
KCL1 120057Z 16012KT 32/13 A3005 RMK A01 T03200127  RH  031%=      5-min Rain = 0
KCL1 120058Z 16009KT 32/13 A3005 RMK A01 T03190126  RH  031%=      5-min Rain = 0
KCL1 120059Z 16008KT 32/13 A3005 RMK A01 T03180125  RH  031%=      5-min Rain = 0
KCL1 120100Z 16012KT 32/13 A3005 RMK A01 T03180126  RH  031%=      5-min Rain = 0
KCL1 120101Z 17014KT 32/13 A3005 RMK A01 T03180125  RH  031%=      5-min Rain = 0
KCL1 120102Z 16012G17KT 32/13 A3005 RMK A01 T03180125  RH  031%=      5-min Rain = 0
KCL1 120103Z 16013KT 32/13 A3005 RMK A01 T03190125  RH  031%=      5-min Rain = 0
KCL1 120104Z 15010KT 32/13 A3005 RMK A01 T03180125  RH  031%=      5-min Rain = 0
KCL1 120105Z 15010KT 32/13 A3005 RMK A01 T03180125  RH  031%=      5-min Rain = 0
KCL1 120106Z 16009KT 32/13 A3005 RMK A01 T03180126  RH  031%=      5-min Rain = 0
KCL1 120107Z 16008KT 32/13 A3005 RMK A01 T03170125  RH  031%=      5-min Rain = 0
KCL1 120108Z 16011KT 32/13 A3005 RMK A01 T03180126  RH  031%=      5-min Rain = 0
KCL1 120109Z 17014KT 32/13 A3005 RMK A01 T03170125  RH  031%=      5-min Rain = 0
KCL1 120110Z 16011KT 32/12 A3005 RMK A01 T03170124  RH  031%=      5-min Rain = 0
KCL1 120111Z 17009KT 32/12 A3005 RMK A01 T03160124  RH  031%=      5-min Rain = 0
KCL1 120112Z 16010G15KT 32/12 A3005 RMK A01 T03150124  RH  031%=      5-min Rain = 0
KCL1 120113Z 15013KT 32/12 A3005 RMK A01 T03150124  RH  031%=      5-min Rain = 0
KCL1 120114Z 16011KT 32/12 A3005 RMK A01 T03150123  RH  031%=      5-min Rain = 0
KCL1 120115Z 16010KT 31/12 A3005 RMK A01 T03140123  RH  031%=      5-min Rain = 0
KCL1 120116Z 17010G15KT 31/12 A3005 RMK A01 T03140123  RH  031%=      5-min Rain = 0
KCL1 120117Z 17013KT 31/12 A3005 RMK A01 T03140123  RH  031%=      5-min Rain = 0
KCL1 120118Z 15011KT 31/12 A3005 RMK A01 T03130123  RH  031%=      5-min Rain = 0
KCL1 120119Z 16013KT 31/12 A3005 RMK A01 T03130123  RH  031%=      5-min Rain = 0
KCL1 120120Z 16009KT 31/12 A3005 RMK A01 T03120123  RH  031%=      5-min Rain = 0
KCL1 120121Z 16009KT 31/12 A3005 RMK A01 T03120123  RH  031%=      5-min Rain = 0
KCL1 120122Z 16013KT 31/12 A3005 RMK A01 T03110123  RH  032%=      5-min Rain = 0
KCL1 120123Z 16013KT 31/12 A3005 RMK A01 T03110122  RH  031%=      5-min Rain = 0
KCL1 120124Z 16010KT 31/12 A3005 RMK A01 T03110123  RH  032%=      5-min Rain = 0
KCL1 120125Z 15012KT 31/12 A3005 RMK A01 T03110123  RH  032%=      5-min Rain = 0
KCL1 120126Z 16010KT 31/12 A3005 RMK A01 T03110123  RH  032%=      5-min Rain = 0
KCL1 120127Z 16013KT 31/12 A3005 RMK A01 T03110124  RH  032%=      5-min Rain = 0
KCL1 120128Z 16012KT 31/12 A3005 RMK A01 T03110124  RH  032%=      5-min Rain = 0
KCL1 120129Z 16012KT 31/13 A3005 RMK A01 T03100125  RH  032%=      5-min Rain = 0
KCL1 120130Z 16009KT 31/13 A3005 RMK A01 T03100126  RH  032%=      5-min Rain = 0
KCL1 120131Z 17011KT 31/13 A3005 RMK A01 T03100125  RH  032%=      5-min Rain = 0
KCL1 120132Z 16008KT 31/13 A3005 RMK A01 T03100126  RH  032%=      5-min Rain = 0
KCL1 120133Z 14011KT 31/13 A3005 RMK A01 T03090126  RH  033%=      5-min Rain = 0
KCL1 120134Z 15011KT 31/13 A3005 RMK A01 T03090126  RH  033%=      5-min Rain = 0
KCL1 120135Z 15010KT 31/13 A3005 RMK A01 T03090126  RH  033%=      5-min Rain = 0
KCL1 120136Z 16009KT 31/13 A3005 RMK A01 T03080127  RH  033%=      5-min Rain = 0
KCL1 120137Z 17009G14KT 31/13 A3005 RMK A01 T03080127  RH  033%=      5-min Rain = 0
KCL1 120138Z 16012KT 31/13 A3005 RMK A01 T03070126  RH  033%=      5-min Rain = 0
KCL1 120139Z 16012KT 31/13 A3005 RMK A01 T03070127  RH  033%=      5-min Rain = 0
KCL1 120140Z 17015KT 31/13 A3005 RMK A01 T03070127  RH  033%=      5-min Rain = 0
KCL1 120141Z 18012KT 31/13 A3005 RMK A01 T03070127  RH  033%=      5-min Rain = 0
KCL1 120142Z 18010KT 31/13 A3005 RMK A01 T03070127  RH  033%=      5-min Rain = 0
KCL1 120143Z 17009KT 31/13 A3005 RMK A01 T03070127  RH  033%=      5-min Rain = 0
KCL1 120144Z 17011KT 31/13 A3005 RMK A01 T03070127  RH  033%=      5-min Rain = 0
KCL1 120145Z 17009KT 31/13 A3005 RMK A01 T03070128  RH  033%=      5-min Rain = 0
KCL1 120146Z 17009KT 31/13 A3005 RMK A01 T03060128  RH  034%=      5-min Rain = 0
KCL1 120147Z 17009KT 31/13 A3005 RMK A01 T03060127  RH  034%=      5-min Rain = 0
KCL1 120148Z 17009KT 31/13 A3005 RMK A01 T03060127  RH  034%=      5-min Rain = 0
KCL1 120149Z 16012KT 31/13 A3005 RMK A01 T03060127  RH  033%=      5-min Rain = 0
KCL1 120150Z 17010G15KT 31/13 A3006 RMK A01 T03060127  RH  033%=      5-min Rain = 0
KCL1 120151Z 18008KT 31/13 A3006 RMK A01 T03060127  RH  033%=      5-min Rain = 0
KCL1 120152Z 18008KT 31/13 A3006 RMK A01 T03060128  RH  034%=      5-min Rain = 0
KCL1 120153Z 18009KT 31/13 A3006 RMK A01 T03060128  RH  034%=      5-min Rain = 0
KCL1 120154Z 18009KT 31/13 A3006 RMK A01 T03050127  RH  034%=      5-min Rain = 0
KCL1 120155Z 18011KT 31/13 A3006 RMK A01 T03050127  RH  033%=      5-min Rain = 0
KCL1 120156Z 18010KT 31/13 A3006 RMK A01 T03050126  RH  033%=      5-min Rain = 0
KCL1 120157Z 18012KT 31/13 A3006 RMK A01 T03050126  RH  033%=      5-min Rain = 0
KCL1 120158Z 17011KT 31/13 A3006 RMK A01 T03050126  RH  033%=      5-min Rain = 0
KCL1 120159Z 17010KT 31/13 A3006 RMK A01 T03050126  RH  033%=      5-min Rain = 0
KCL1 120200Z 18007KT 30/13 A3006 RMK A01 T03040125  RH  033%=      5-min Rain = 0
KCL1 120201Z 18007KT 30/13 A3006 RMK A01 T03040126  RH  034%=      5-min Rain = 0
KCL1 120202Z 17009G15KT 30/13 A3006 RMK A01 T03030125  RH  034%=      5-min Rain = 0
KCL1 120203Z 17010G15KT 30/13 A3006 RMK A01 T03030125  RH  034%=      5-min Rain = 0
KCL1 120204Z 16010KT 30/13 A3006 RMK A01 T03040125  RH  034%=      5-min Rain = 0
KCL1 120205Z 18011KT 30/13 A3006 RMK A01 T03040126  RH  034%=      5-min Rain = 0
KCL1 120206Z 17010KT 30/13 A3006 RMK A01 T03040126  RH  034%=      5-min Rain = 0
KCL1 120207Z 17011KT 30/13 A3006 RMK A01 T03040126  RH  034%=      5-min Rain = 0
KCL1 120208Z 17012KT 30/13 A3006 RMK A01 T03030125  RH  034%=      5-min Rain = 0
KCL1 120209Z 16009KT 30/13 A3006 RMK A01 T03030125  RH  034%=      5-min Rain = 0
KCL1 120210Z 17007KT 30/13 A3006 RMK A01 T03030125  RH  034%=      5-min Rain = 0
KCL1 120211Z 17007KT 30/13 A3006 RMK A01 T03020126  RH  034%=      5-min Rain = 0
KCL1 120212Z 18009KT 30/13 A3006 RMK A01 T03010126  RH  034%=      5-min Rain = 0
KCL1 120213Z 17008KT 30/13 A3006 RMK A01 T03010126  RH  034%=      5-min Rain = 0
KCL1 120214Z 17008KT 30/13 A3006 RMK A01 T03010126  RH  034%=      5-min Rain = 0
KCL1 120215Z 17007KT 30/13 A3007 RMK A01 T03010125  RH  034%=      5-min Rain = 0
KCL1 120216Z 17007KT 30/13 A3007 RMK A01 T03010126  RH  034%=      5-min Rain = 0
KCL1 120217Z 17006KT 30/13 A3007 RMK A01 T03000126  RH  034%=      5-min Rain = 0
KCL1 120218Z 16007KT 30/13 A3007 RMK A01 T03000126  RH  034%=      5-min Rain = 0
KCL1 120219Z 17007KT 30/13 A3007 RMK A01 T03000126  RH  035%=      5-min Rain = 0
KCL1 120220Z 17008KT 30/13 A3007 RMK A01 T02990126  RH  035%=      5-min Rain = 0
KCL1 120221Z 16006KT 30/13 A3007 RMK A01 T02990127  RH  035%=      5-min Rain = 0
KCL1 120222Z 17007KT 30/13 A3007 RMK A01 T02990126  RH  035%=      5-min Rain = 0
KCL1 120223Z 17008KT 30/13 A3007 RMK A01 T02980126  RH  035%=      5-min Rain = 0
KCL1 120224Z 16009KT 30/13 A3007 RMK A01 T02980126  RH  035%=      5-min Rain = 0
KCL1 120225Z 17006KT 30/13 A3007 RMK A01 T02980126  RH  035%=      5-min Rain = 0
KCL1 120226Z 16006KT 30/13 A3007 RMK A01 T02990126  RH  035%=      5-min Rain = 0
KCL1 120227Z 16007KT 30/13 A3007 RMK A01 T02990126  RH  035%=      5-min Rain = 0
KCL1 120228Z 16007KT 30/13 A3007 RMK A01 T02990127  RH  035%=      5-min Rain = 0
KCL1 120229Z 17007KT 30/13 A3007 RMK A01 T02980126  RH  035%=      5-min Rain = 0
KCL1 120230Z 16006KT 30/13 A3007 RMK A01 T02980127  RH  035%=      5-min Rain = 0
KCL1 120231Z 16008KT 30/13 A3007 RMK A01 T02980127  RH  035%=      5-min Rain = 0
KCL1 120232Z 16006KT 30/13 A3008 RMK A01 T02980126  RH  035%=      5-min Rain = 0
KCL1 120233Z 16007KT 30/13 A3008 RMK A01 T02980127  RH  035%=      5-min Rain = 0
KCL1 120234Z 15008KT 30/13 A3008 RMK A01 T02970127  RH  035%=      5-min Rain = 0
KCL1 120235Z 16009KT 30/13 A3008 RMK A01 T02980126  RH  035%=      5-min Rain = 0
KCL1 120236Z 16008KT 30/13 A3008 RMK A01 T02980126  RH  035%=      5-min Rain = 0
KCL1 120237Z 16006KT 30/13 A3008 RMK A01 T02990126  RH  035%=      5-min Rain = 0
KCL1 120238Z 16006KT 30/13 A3008 RMK A01 T02990127  RH  035%=      5-min Rain = 0
KCL1 120239Z 15006KT 30/13 A3008 RMK A01 T02990127  RH  035%=      5-min Rain = 0
KCL1 120240Z 16007G12KT 30/13 A3008 RMK A01 T02980128  RH  035%=      5-min Rain = 0
KCL1 120241Z 15008KT 30/13 A3008 RMK A01 T02980127  RH  035%=      5-min Rain = 0
KCL1 120242Z 15006KT 30/13 A3008 RMK A01 T02980127  RH  035%=      5-min Rain = 0
KCL1 120243Z 16007G12KT 30/13 A3008 RMK A01 T02980127  RH  035%=      5-min Rain = 0
KCL1 120244Z 15008KT 30/13 A3008 RMK A01 T02980126  RH  035%=      5-min Rain = 0
KCL1 120245Z 15008KT 30/13 A3008 RMK A01 T02980127  RH  035%=      5-min Rain = 0
KCL1 120246Z 15006KT 30/13 A3008 RMK A01 T02990128  RH  035%=      5-min Rain = 0
KCL1 120247Z 15007KT 30/13 A3008 RMK A01 T02980128  RH  035%=      5-min Rain = 0
KCL1 120248Z 15009KT 30/13 A3008 RMK A01 T02970127  RH  035%=      5-min Rain = 0
KCL1 120249Z 16005KT 30/13 A3008 RMK A01 T02980127  RH  035%=      5-min Rain = 0
KCL1 120250Z 15007KT 30/13 A3008 RMK A01 T02980128  RH  035%=      5-min Rain = 0
KCL1 120251Z 17008KT 30/13 A3009 RMK A01 T02980128  RH  035%=      5-min Rain = 0
KCL1 120252Z 16007KT 30/13 A3009 RMK A01 T02980128  RH  035%=      5-min Rain = 0
KCL1 120253Z 16006KT 30/13 A3009 RMK A01 T02980127  RH  035%=      5-min Rain = 0
KCL1 120254Z 17008KT 30/13 A3009 RMK A01 T02980128  RH  035%=      5-min Rain = 0
KCL1 120255Z 17007KT 30/13 A3009 RMK A01 T02980128  RH  035%=      5-min Rain = 0
KCL1 120256Z 16005KT 30/13 A3009 RMK A01 T02980127  RH  035%=      5-min Rain = 0
KCL1 120257Z 16005KT 30/13 A3009 RMK A01 T02980128  RH  035%=      5-min Rain = 0
KCL1 120258Z 16005KT 30/13 A3009 RMK A01 T02970128  RH  035%=      5-min Rain = 0
KCL1 120259Z 15006KT 30/13 A3009 RMK A01 T02970128  RH  035%=      5-min Rain = 0
KCL1 120300Z 15005KT 30/13 A3009 RMK A01 T02960128  RH  036%=      5-min Rain = 0
KCL1 120301Z 16007KT 30/13 A3009 RMK A01 T02960128  RH  036%=      5-min Rain = 0
KCL1 120302Z 15006KT 30/13 A3009 RMK A01 T02960127  RH  035%=      5-min Rain = 0
KCL1 120303Z 15005KT 30/13 A3009 RMK A01 T02960128  RH  035%=      5-min Rain = 0
KCL1 120304Z 16006KT 30/13 A3009 RMK A01 T02970129  RH  036%=      5-min Rain = 0
KCL1 120305Z 15008KT 30/13 A3009 RMK A01 T02960128  RH  036%=      5-min Rain = 0
KCL1 120306Z 16007KT 30/13 A3009 RMK A01 T02960127  RH  035%=      5-min Rain = 0
KCL1 120307Z 17008KT 30/13 A3009 RMK A01 T02960127  RH  035%=      5-min Rain = 0
KCL1 120308Z 16009KT 30/13 A3009 RMK A01 T02960127  RH  035%=      5-min Rain = 0
KCL1 120309Z 16009KT 30/13 A3009 RMK A01 T02970127  RH  035%=      5-min Rain = 0
KCL1 120310Z 17008KT 30/13 A3009 RMK A01 T02980127  RH  035%=      5-min Rain = 0
KCL1 120311Z 16007KT 30/13 A3009 RMK A01 T02980127  RH  035%=      5-min Rain = 0
KCL1 120312Z 17011KT 30/13 A3009 RMK A01 T02980127  RH  035%=      5-min Rain = 0
KCL1 120313Z 16008KT 30/13 A3009 RMK A01 T02980126  RH  035%=      5-min Rain = 0
KCL1 120314Z 17006KT 30/13 A3009 RMK A01 T02980126  RH  035%=      5-min Rain = 0
KCL1 120315Z 15010KT 30/13 A3009 RMK A01 T02980127  RH  035%=      5-min Rain = 0
KCL1 120316Z 16007KT 30/13 A3009 RMK A01 T02980127  RH  035%=      5-min Rain = 0
KCL1 120317Z 15007KT 30/13 A3009 RMK A01 T02980127  RH  035%=      5-min Rain = 0
KCL1 120318Z 17007KT 30/13 A3009 RMK A01 T02970127  RH  035%=      5-min Rain = 0
KCL1 120319Z 16005KT 30/13 A3009 RMK A01 T02960127  RH  035%=      5-min Rain = 0
KCL1 120320Z 15007KT 30/13 A301 RMK A01 T02960127  RH  035%=      5-min Rain = 0
KCL1 120321Z 17010KT 30/13 A301 RMK A01 T02960126  RH  035%=      5-min Rain = 0
KCL1 120322Z 16008KT 30/13 A301 RMK A01 T02960127  RH  035%=      5-min Rain = 0
KCL1 120323Z 17006KT 30/13 A301 RMK A01 T02960126  RH  035%=      5-min Rain = 0
KCL1 120324Z 16005KT 30/13 A301 RMK A01 T02960126  RH  035%=      5-min Rain = 0
KCL1 120325Z 16005KT 30/13 A301 RMK A01 T02950127  RH  036%=      5-min Rain = 0
KCL1 120326Z 17008KT 29/13 A301 RMK A01 T02940127  RH  036%=      5-min Rain = 0
KCL1 120327Z 16008KT 29/13 A301 RMK A01 T02940126  RH  036%=      5-min Rain = 0
KCL1 120328Z 16008KT 29/13 A301 RMK A01 T02940126  RH  036%=      5-min Rain = 0
KCL1 120329Z 16008KT 29/13 A301 RMK A01 T02940126  RH  035%=      5-min Rain = 0
KCL1 120330Z 16008KT 30/13 A301 RMK A01 T02950126  RH  036%=      5-min Rain = 0
KCL1 120331Z 16004KT 30/13 A301 RMK A01 T02950127  RH  036%=      5-min Rain = 0
KCL1 120332Z 16006KT 29/13 A301 RMK A01 T02940127  RH  036%=      5-min Rain = 0
KCL1 120333Z 16005KT 29/13 A301 RMK A01 T02940127  RH  036%=      5-min Rain = 0
KCL1 120334Z 15005KT 29/13 A301 RMK A01 T02930127  RH  036%=      5-min Rain = 0
KCL1 120335Z 16005KT 29/13 A301 RMK A01 T02920128  RH  036%=      5-min Rain = 0
KCL1 120336Z 15006KT 29/13 A301 RMK A01 T02910128  RH  036%=      5-min Rain = 0
KCL1 120337Z 14005KT 29/13 A301 RMK A01 T02910128  RH  037%=      5-min Rain = 0
KCL1 120338Z 14006KT 29/13 A301 RMK A01 T02900128  RH  037%=      5-min Rain = 0
KCL1 120339Z 15008KT 29/13 A301 RMK A01 T02900128  RH  037%=      5-min Rain = 0
KCL1 120340Z 15006KT 29/13 A301 RMK A01 T02900128  RH  037%=      5-min Rain = 0
KCL1 120341Z 15005KT 29/13 A301 RMK A01 T02900127  RH  037%=      5-min Rain = 0
KCL1 120342Z 14006KT 29/13 A301 RMK A01 T02900128  RH  037%=      5-min Rain = 0
KCL1 120343Z 15006KT 29/13 A301 RMK A01 T02890128  RH  037%=      5-min Rain = 0
KCL1 120344Z 15005KT 29/13 A301 RMK A01 T02890128  RH  037%=      5-min Rain = 0
KCL1 120345Z 14006KT 29/13 A301 RMK A01 T02890128  RH  037%=      5-min Rain = 0
KCL1 120346Z 13005KT 29/13 A301 RMK A01 T02890129  RH  037%=      5-min Rain = 0
KCL1 120347Z 14006KT 29/13 A301 RMK A01 T02880129  RH  037%=      5-min Rain = 0
KCL1 120348Z 14006KT 29/13 A301 RMK A01 T02870129  RH  038%=      5-min Rain = 0
KCL1 120349Z 14007KT 29/13 A301 RMK A01 T02860129  RH  038%=      5-min Rain = 0
KCL1 120350Z 15008KT 29/13 A301 RMK A01 T02860128  RH  038%=      5-min Rain = 0
KCL1 120351Z 14006KT 29/13 A301 RMK A01 T02860128  RH  038%=      5-min Rain = 0
KCL1 120352Z 14007KT 29/13 A301 RMK A01 T02860128  RH  038%=      5-min Rain = 0
KCL1 120353Z 15006KT 29/13 A301 RMK A01 T02860128  RH  038%=      5-min Rain = 0
KCL1 120354Z 15006KT 29/13 A301 RMK A01 T02860129  RH  038%=      5-min Rain = 0
KCL1 120355Z 15007KT 29/13 A301 RMK A01 T02860129  RH  038%=      5-min Rain = 0
KCL1 120356Z 15006KT 29/13 A301 RMK A01 T02860129  RH  038%=      5-min Rain = 0
KCL1 120357Z 15006KT 29/13 A301 RMK A01 T02870129  RH  038%=      5-min Rain = 0
KCL1 120358Z 16005KT 29/13 A301 RMK A01 T02870129  RH  038%=      5-min Rain = 0
KCL1 120359Z 16005KT 29/13 A301 RMK A01 T02870129  RH  038%=      5-min Rain = 0
KCL1 120400Z 16006KT 29/13 A301 RMK A01 T02870128  RH  038%=      5-min Rain = 0
KCL1 120401Z 15005KT 29/13 A301 RMK A01 T02880129  RH  037%=      5-min Rain = 0
KCL1 120402Z 16005KT 29/13 A301 RMK A01 T02880129  RH  038%=      5-min Rain = 0
KCL1 120403Z 17007KT 29/13 A301 RMK A01 T02880129  RH  038%=      5-min Rain = 0
KCL1 120404Z 17006KT 29/13 A301 RMK A01 T02880127  RH  037%=      5-min Rain = 0
KCL1 120405Z 16008KT 29/13 A301 RMK A01 T02890127  RH  037%=      5-min Rain = 0
KCL1 120406Z 17008KT 29/13 A301 RMK A01 T02900127  RH  037%=      5-min Rain = 0
KCL1 120407Z 16007KT 29/13 A301 RMK A01 T02910127  RH  036%=      5-min Rain = 0
KCL1 120408Z 16005KT 29/13 A301 RMK A01 T02920127  RH  036%=      5-min Rain = 0
KCL1 120409Z 14007KT 29/13 A301 RMK A01 T02920127  RH  036%=      5-min Rain = 0
KCL1 120410Z 14007KT 29/13 A301 RMK A01 T02920128  RH  036%=      5-min Rain = 0
KCL1 120411Z 14006KT 29/13 A301 RMK A01 T02910129  RH  037%=      5-min Rain = 0
KCL1 120412Z 13005KT 29/13 A301 RMK A01 T02890129  RH  037%=      5-min Rain = 0
KCL1 120413Z 12006KT 29/13 A301 RMK A01 T02870130  RH  038%=      5-min Rain = 0
KCL1 120414Z 14007KT 29/13 A301 RMK A01 T02850130  RH  038%=      5-min Rain = 0
KCL1 120415Z 14006KT 28/13 A301 RMK A01 T02830129  RH  039%=      5-min Rain = 0
KCL1 120416Z 14005KT 28/13 A301 RMK A01 T02820129  RH  039%=      5-min Rain = 0
KCL1 120417Z 14006KT 28/13 A3011 RMK A01 T02810129  RH  039%=      5-min Rain = 0
KCL1 120418Z 14006KT 28/13 A3011 RMK A01 T02810128  RH  039%=      5-min Rain = 0
KCL1 120419Z 14007KT 28/13 A3011 RMK A01 T02810129  RH  039%=      5-min Rain = 0
KCL1 120420Z 15006KT 28/13 A3011 RMK A01 T02800128  RH  039%=      5-min Rain = 0
KCL1 120421Z 15007KT 28/13 A3011 RMK A01 T02800128  RH  039%=      5-min Rain = 0
KCL1 120422Z 15007KT 28/13 A3011 RMK A01 T02800127  RH  039%=      5-min Rain = 0
KCL1 120423Z 14007KT 28/13 A3011 RMK A01 T02800127  RH  039%=      5-min Rain = 0
KCL1 120424Z 14007KT 28/13 A3011 RMK A01 T02810127  RH  039%=      5-min Rain = 0
KCL1 120425Z 15006KT 28/13 A3011 RMK A01 T02810127  RH  039%=      5-min Rain = 0
KCL1 120426Z 15006KT 28/13 A3011 RMK A01 T02810127  RH  039%=      5-min Rain = 0
KCL1 120427Z 15006KT 28/13 A3011 RMK A01 T02810128  RH  039%=      5-min Rain = 0
KCL1 120428Z 15005KT 28/13 A3011 RMK A01 T02810128  RH  039%=      5-min Rain = 0
KCL1 120429Z 15005KT 28/13 A3011 RMK A01 T02810128  RH  039%=      5-min Rain = 0
KCL1 120430Z 13005KT 28/13 A3011 RMK A01 T02810128  RH  039%=      5-min Rain = 0
KCL1 120431Z 14006KT 28/13 A3011 RMK A01 T02810128  RH  039%=      5-min Rain = 0
KCL1 120432Z 13006KT 28/13 A3011 RMK A01 T02810127  RH  039%=      5-min Rain = 0
KCL1 120433Z 14007KT 28/13 A3011 RMK A01 T02810127  RH  039%=      5-min Rain = 0
KCL1 120434Z 14007KT 28/13 A3011 RMK A01 T02810127  RH  039%=      5-min Rain = 0
KCL1 120435Z 15006KT 28/13 A3011 RMK A01 T02820127  RH  038%=      5-min Rain = 0
KCL1 120436Z 15005KT 28/13 A3011 RMK A01 T02820127  RH  038%=      5-min Rain = 0
KCL1 120437Z 16004KT 28/13 A3011 RMK A01 T02830127  RH  038%=      5-min Rain = 0
KCL1 120438Z 16004KT 28/13 A3011 RMK A01 T02830129  RH  039%=      5-min Rain = 0
KCL1 120439Z 16005KT 28/13 A3011 RMK A01 T02820128  RH  039%=      5-min Rain = 0
KCL1 120440Z 16004KT 28/13 A3011 RMK A01 T02810128  RH  039%=      5-min Rain = 0
KCL1 120441Z 18005KT 28/13 A3011 RMK A01 T02810128  RH  039%=      5-min Rain = 0
KCL1 120442Z 18005KT 28/13 A3011 RMK A01 T02810128  RH  039%=      5-min Rain = 0
KCL1 120443Z 16003KT 28/13 A3011 RMK A01 T02800128  RH  039%=      5-min Rain = 0
KCL1 120444Z 16004KT 28/13 A3011 RMK A01 T02810128  RH  039%=      5-min Rain = 0
KCL1 120445Z 16004KT 28/13 A3011 RMK A01 T02800129  RH  039%=      5-min Rain = 0
KCL1 120446Z 16004KT 28/13 A3011 RMK A01 T02800129  RH  039%=      5-min Rain = 0
KCL1 120447Z 16005KT 28/13 A3011 RMK A01 T02800128  RH  039%=      5-min Rain = 0
KCL1 120448Z 17005KT 28/13 A3011 RMK A01 T02800128  RH  039%=      5-min Rain = 0
KCL1 120449Z 17005KT 28/13 A3011 RMK A01 T02800128  RH  039%=      5-min Rain = 0
KCL1 120450Z 17005KT 28/13 A3011 RMK A01 T02800128  RH  039%=      5-min Rain = 0
KCL1 120451Z 18004KT 28/13 A3011 RMK A01 T02800128  RH  039%=      5-min Rain = 0
KCL1 120452Z 17005KT 28/13 A3011 RMK A01 T02790128  RH  039%=      5-min Rain = 0
KCL1 120453Z 17005KT 28/13 A3011 RMK A01 T02790128  RH  039%=      5-min Rain = 0
KCL1 120454Z 16004KT 28/13 A3011 RMK A01 T02790128  RH  039%=      5-min Rain = 0
KCL1 120455Z 16005KT 28/13 A3011 RMK A01 T02790128  RH  039%=      5-min Rain = 0
KCL1 120456Z 17005KT 28/13 A3011 RMK A01 T02790128  RH  039%=      5-min Rain = 0
KCL1 120457Z 16006KT 28/13 A3011 RMK A01 T02790128  RH  039%=      5-min Rain = 0
KCL1 120458Z 16005KT 28/13 A3011 RMK A01 T02790128  RH  039%=      5-min Rain = 0
KCL1 120459Z 17005KT 28/13 A3011 RMK A01 T02780128  RH  040%=      5-min Rain = 0
KCL1 120500Z 18006KT 28/13 A3011 RMK A01 T02780128  RH  040%=      5-min Rain = 0

Page generated in 0.0338 seconds.